PWSweather.com
Personal Weather Stations
Station Observations
KNMFARMI31
Near Jackson Lake, Farmington, NM 87401

Near Jackson LakeFarmington, NM 87401

Lat: 36.821, Lon: -108.225

Elevation: 5482

Station Type: Davis Vantange Vue

Latest ConditionsUpdated 10:50:13 AM MDT Monday, Sep 23, 2019
Currently Today's Max Today's Min Today's Average
Temperature 63.4°F17.4°C 64.6°F18.1°C 37.9°F3.3°C 46.8°F8.2°C
Dew Point 29.7°F-1.3°C 30.1°F-1.1°C 20.6°F-6.3°C 24.3°F-4.3°C
Winds 3.0 mph SE4.8 kmh SE 11.0 mph -17.7 kmh - - 0.6 mph 1.0 kmh
Wind Gusts 12.0 mph19.3 kmh 12.0 mph19.3 kmh - -
Humidity 28% 57% 23% 42%
Pressure 29.30 in992.2 mb 29.31 in992.6 mb 29.23 in989.8 mb -
Hour Temp Dew Point Humidity Winds Wind Gusts Pressure Precip Precip Rate Daily Precip Total
10:50 AM 63.4°F17.4°C 29.7°F-1.3°C 28% 3.0 mph SE4.8 kmh SE 12.0 mph19.3 kmh 29.30 in992.2 mb 0.00 in0.0 mm 0.00 in0.0 mm 0.00 in0.0 mm
10:49 AM 63.4°F17.4°C 29.7°F-1.3°C 28% 5.0 mph SE8.0 kmh SE 12.0 mph19.3 kmh 29.30 in992.2 mb 0.00 in0.0 mm 0.00 in0.0 mm 0.00 in0.0 mm
10:48 AM 63.5°F17.5°C 29.8°F-1.2°C 28% 3.0 mph SE4.8 kmh SE 12.0 mph19.3 kmh 29.31 in992.6 mb 0.00 in0.0 mm 0.00 in0.0 mm 0.00 in0.0 mm
10:47 AM 63.6°F17.6°C 29.9°F-1.2°C 28% 6.0 mph S9.7 kmh S 12.0 mph19.3 kmh 29.31 in992.6 mb 0.00 in0.0 mm 0.00 in0.0 mm 0.00 in0.0 mm
10:46 AM 63.8°F17.7°C 30.1°F-1.1°C 28% 7.0 mph S11.3 kmh S 12.0 mph19.3 kmh 29.31 in992.6 mb 0.00 in0.0 mm 0.00 in0.0 mm 0.00 in0.0 mm
10:45 AM 64.0°F17.8°C 29.4°F-1.4°C 27% 11.0 mph S17.7 kmh S 12.0 mph19.3 kmh 29.31 in992.6 mb 0.00 in0.0 mm 0.00 in0.0 mm 0.00 in0.0 mm
10:44 AM 64.2°F17.9°C 29.5°F-1.4°C 27% 10.0 mph SE16.1 kmh SE 11.0 mph17.7 kmh 29.31 in992.6 mb 0.00 in0.0 mm 0.00 in0.0 mm 0.00 in0.0 mm
10:43 AM 64.2°F17.9°C 28.6°F-1.9°C 26% 8.0 mph S12.9 kmh S 11.0 mph17.7 kmh 29.31 in992.6 mb 0.00 in0.0 mm 0.00 in0.0 mm 0.00 in0.0 mm
10:42 AM 64.3°F17.9°C 28.7°F-1.8°C 26% 7.0 mph SSE11.3 kmh SSE 11.0 mph17.7 kmh 29.31 in992.6 mb 0.00 in0.0 mm 0.00 in0.0 mm 0.00 in0.0 mm
10:41 AM 64.3°F17.9°C 28.7°F-1.8°C 26% 6.0 mph SE9.7 kmh SE 11.0 mph17.7 kmh 29.30 in992.2 mb 0.00 in0.0 mm 0.00 in0.0 mm 0.00 in0.0 mm
10:40 AM 64.4°F18.0°C 27.8°F-2.3°C 25% 5.0 mph SE8.0 kmh SE 10.0 mph16.1 kmh 29.30 in992.2 mb 0.00 in0.0 mm 0.00 in0.0 mm 0.00 in0.0 mm
10:39 AM 64.4°F18.0°C 27.8°F-2.3°C 25% 7.0 mph SE11.3 kmh SE 9.0 mph14.5 kmh 29.30 in992.2 mb 0.00 in0.0 mm 0.00 in0.0 mm 0.00 in0.0 mm
10:38 AM 64.4°F18.0°C 27.8°F-2.3°C 25% 6.0 mph SE9.7 kmh SE 10.0 mph16.1 kmh 29.30 in992.2 mb 0.00 in0.0 mm 0.00 in0.0 mm 0.00 in0.0 mm
10:37 AM 64.4°F18.0°C 27.8°F-2.3°C 25% 7.0 mph SE11.3 kmh SE 10.0 mph16.1 kmh 29.30 in992.2 mb 0.00 in0.0 mm 0.00 in0.0 mm 0.00 in0.0 mm
10:36 AM 64.4°F18.0°C 27.8°F-2.3°C 25% 4.0 mph SSE6.4 kmh SSE 10.0 mph16.1 kmh 29.30 in992.2 mb 0.00 in0.0 mm 0.00 in0.0 mm 0.00 in0.0 mm
10:35 AM 64.4°F18.0°C 26.8°F-2.9°C 24% 5.0 mph SE8.0 kmh SE 10.0 mph16.1 kmh 29.30 in992.2 mb 0.00 in0.0 mm 0.00 in0.0 mm 0.00 in0.0 mm
10:34 AM 64.4°F18.0°C 26.8°F-2.9°C 24% 6.0 mph SSE9.7 kmh SSE 10.0 mph16.1 kmh 29.30 in992.2 mb 0.00 in0.0 mm 0.00 in0.0 mm 0.00 in0.0 mm
10:33 AM 64.4°F18.0°C 26.8°F-2.9°C 24% 3.0 mph SSE4.8 kmh SSE 10.0 mph16.1 kmh 29.29 in991.9 mb 0.00 in0.0 mm 0.00 in0.0 mm 0.00 in0.0 mm
10:32 AM 64.5°F18.1°C 26.9°F-2.8°C 24% 4.0 mph SE6.4 kmh SE 10.0 mph16.1 kmh 29.29 in991.9 mb 0.00 in0.0 mm 0.00 in0.0 mm 0.00 in0.0 mm
10:31 AM 64.6°F18.1°C 27.0°F-2.8°C 24% 5.0 mph SE8.0 kmh SE 10.0 mph16.1 kmh 29.29 in991.9 mb 0.00 in0.0 mm 0.00 in0.0 mm 0.00 in0.0 mm
10:30 AM 64.6°F18.1°C 26.0°F-3.3°C 23% 6.0 mph SE9.7 kmh SE 10.0 mph16.1 kmh 29.29 in991.9 mb 0.00 in0.0 mm 0.00 in0.0 mm 0.00 in0.0 mm
10:29 AM 64.6°F18.1°C 27.0°F-2.8°C 24% 5.0 mph S8.0 kmh S 8.0 mph12.9 kmh 29.29 in991.9 mb 0.00 in0.0 mm 0.00 in0.0 mm 0.00 in0.0 mm
10:28 AM 64.6°F18.1°C 27.0°F-2.8°C 24% 4.0 mph SSE6.4 kmh SSE 6.0 mph9.7 kmh 29.29 in991.9 mb 0.00 in0.0 mm 0.00 in0.0 mm 0.00 in0.0 mm
10:27 AM 64.5°F18.1°C 26.9°F-2.8°C 24% 3.0 mph S4.8 kmh S 6.0 mph9.7 kmh 29.29 in991.9 mb 0.00 in0.0 mm 0.00 in0.0 mm 0.00 in0.0 mm
10:26 AM 64.5°F18.1°C 26.9°F-2.8°C 24% 4.0 mph SE6.4 kmh SE 6.0 mph9.7 kmh 29.29 in991.9 mb 0.00 in0.0 mm 0.00 in0.0 mm 0.00 in0.0 mm
10:25 AM 64.5°F18.1°C 26.9°F-2.8°C 24% 3.0 mph ESE4.8 kmh ESE 6.0 mph9.7 kmh 29.29 in991.9 mb 0.00 in0.0 mm 0.00 in0.0 mm 0.00 in0.0 mm
10:24 AM 64.4°F18.0°C 26.8°F-2.9°C 24% 2.0 mph SSE3.2 kmh SSE 6.0 mph9.7 kmh 29.29 in991.9 mb 0.00 in0.0 mm 0.00 in0.0 mm 0.00 in0.0 mm
10:23 AM 64.4°F18.0°C 25.8°F-3.4°C 23% 4.0 mph SE6.4 kmh SE 6.0 mph9.7 kmh 29.28 in991.5 mb 0.00 in0.0 mm 0.00 in0.0 mm 0.00 in0.0 mm
10:22 AM 64.4°F18.0°C 26.8°F-2.9°C 24% 3.0 mph SSE4.8 kmh SSE 6.0 mph9.7 kmh 29.28 in991.5 mb 0.00 in0.0 mm 0.00 in0.0 mm 0.00 in0.0 mm
10:21 AM 64.3°F17.9°C 26.7°F-2.9°C 24% 5.0 mph SE8.0 kmh SE 6.0 mph9.7 kmh 29.28 in991.5 mb 0.00 in0.0 mm 0.00 in0.0 mm 0.00 in0.0 mm
10:20 AM 64.3°F17.9°C 26.7°F-2.9°C 24% 3.0 mph SE4.8 kmh SE 6.0 mph9.7 kmh 29.28 in991.5 mb 0.00 in0.0 mm 0.00 in0.0 mm 0.00 in0.0 mm
10:19 AM 64.3°F17.9°C 26.7°F-2.9°C 24% 2.0 mph SE3.2 kmh SE 6.0 mph9.7 kmh 29.28 in991.5 mb 0.00 in0.0 mm 0.00 in0.0 mm 0.00 in0.0 mm
10:18 AM 64.2°F17.9°C 26.7°F-2.9°C 24% 4.0 mph SSE6.4 kmh SSE 6.0 mph9.7 kmh 29.28 in991.5 mb 0.00 in0.0 mm 0.00 in0.0 mm 0.00 in0.0 mm
10:17 AM 64.1°F17.8°C 26.6°F-3.0°C 24% 1.0 mph SE1.6 kmh SE 6.0 mph9.7 kmh 29.28 in991.5 mb 0.00 in0.0 mm 0.00 in0.0 mm 0.00 in0.0 mm
10:16 AM 64.1°F17.8°C 26.6°F-3.0°C 24% 5.0 mph ESE8.0 kmh ESE 6.0 mph9.7 kmh 29.28 in991.5 mb 0.00 in0.0 mm 0.00 in0.0 mm 0.00 in0.0 mm
10:15 AM 64.1°F17.8°C 26.6°F-3.0°C 24% 3.0 mph SSE4.8 kmh SSE 4.0 mph6.4 kmh 29.28 in991.5 mb 0.00 in0.0 mm 0.00 in0.0 mm 0.00 in0.0 mm
10:14 AM 64.1°F17.8°C 27.6°F-2.4°C 25% 2.0 mph SE3.2 kmh SE 4.0 mph6.4 kmh 29.28 in991.5 mb 0.00 in0.0 mm 0.00 in0.0 mm 0.00 in0.0 mm
10:13 AM 64.1°F17.8°C 27.6°F-2.4°C 25% 1.0 mph SE1.6 kmh SE 4.0 mph6.4 kmh 29.28 in991.5 mb 0.00 in0.0 mm 0.00 in0.0 mm 0.00 in0.0 mm
10:12 AM 64.1°F17.8°C 27.6°F-2.4°C 25% 2.0 mph E3.2 kmh E 4.0 mph6.4 kmh 29.28 in991.5 mb 0.00 in0.0 mm 0.00 in0.0 mm 0.00 in0.0 mm
10:11 AM 64.0°F17.8°C 26.5°F-3.1°C 24% 3.0 mph ESE4.8 kmh ESE 4.0 mph6.4 kmh 29.28 in991.5 mb 0.00 in0.0 mm 0.00 in0.0 mm 0.00 in0.0 mm
10:10 AM 64.0°F17.8°C 27.5°F-2.5°C 25% 1.0 mph SE1.6 kmh SE 3.0 mph4.8 kmh 29.28 in991.5 mb 0.00 in0.0 mm 0.00 in0.0 mm 0.00 in0.0 mm
10:09 AM 63.9°F17.7°C 27.4°F-2.6°C 25% 1.0 mph SE1.6 kmh SE 3.0 mph4.8 kmh 29.28 in991.5 mb 0.00 in0.0 mm 0.00 in0.0 mm 0.00 in0.0 mm
10:08 AM 63.9°F17.7°C 27.4°F-2.6°C 25% Calm Calm 3.0 mph4.8 kmh 29.28 in991.5 mb 0.00 in0.0 mm 0.00 in0.0 mm 0.00 in0.0 mm
10:07 AM 63.9°F17.7°C 27.4°F-2.6°C 25% Calm Calm 3.0 mph4.8 kmh 29.28 in991.5 mb 0.00 in0.0 mm 0.00 in0.0 mm 0.00 in0.0 mm
10:06 AM 63.8°F17.7°C 27.3°F-2.6°C 25% 1.0 mph ESE1.6 kmh ESE 3.0 mph4.8 kmh 29.28 in991.5 mb 0.00 in0.0 mm 0.00 in0.0 mm 0.00 in0.0 mm
10:05 AM 63.8°F17.7°C 27.3°F-2.6°C 25% 2.0 mph NE3.2 kmh NE 3.0 mph4.8 kmh 29.27 in991.2 mb 0.00 in0.0 mm 0.00 in0.0 mm 0.00 in0.0 mm
10:04 AM 63.8°F17.7°C 27.3°F-2.6°C 25% 2.0 mph E3.2 kmh E 3.0 mph4.8 kmh 29.27 in991.2 mb 0.00 in0.0 mm 0.00 in0.0 mm 0.00 in0.0 mm
10:03 AM 63.7°F17.6°C 27.2°F-2.7°C 25% Calm Calm 3.0 mph4.8 kmh 29.27 in991.2 mb 0.00 in0.0 mm 0.00 in0.0 mm 0.00 in0.0 mm
10:02 AM 63.7°F17.6°C 27.2°F-2.7°C 25% 2.0 mph E3.2 kmh E 3.0 mph4.8 kmh 29.27 in991.2 mb 0.00 in0.0 mm 0.00 in0.0 mm 0.00 in0.0 mm
10:01 AM 63.6°F17.6°C 27.1°F-2.7°C 25% Calm Calm 2.0 mph3.2 kmh 29.28 in991.5 mb 0.00 in0.0 mm 0.00 in0.0 mm 0.00 in0.0 mm
10:00 AM 63.5°F17.5°C 27.1°F-2.7°C 25% Calm Calm 2.0 mph3.2 kmh 29.27 in991.2 mb 0.00 in0.0 mm 0.00 in0.0 mm 0.00 in0.0 mm
09:59 AM 63.4°F17.4°C 27.0°F-2.8°C 25% Calm Calm 2.0 mph3.2 kmh 29.28 in991.5 mb 0.00 in0.0 mm 0.00 in0.0 mm 0.00 in0.0 mm
09:58 AM 63.3°F17.4°C 28.8°F-1.8°C 27% Calm Calm 2.0 mph3.2 kmh 29.28 in991.5 mb 0.00 in0.0 mm 0.00 in0.0 mm 0.00 in0.0 mm
09:57 AM 63.3°F17.4°C 28.8°F-1.8°C 27% 1.0 mph SE1.6 kmh SE 2.0 mph3.2 kmh 29.27 in991.2 mb 0.00 in0.0 mm 0.00 in0.0 mm 0.00 in0.0 mm
09:56 AM 63.2°F17.3°C 27.8°F-2.3°C 26% Calm Calm -- 29.27 in991.2 mb 0.00 in0.0 mm 0.00 in0.0 mm 0.00 in0.0 mm
09:55 AM 63.1°F17.3°C 28.6°F-1.9°C 27% Calm Calm -- 29.27 in991.2 mb 0.00 in0.0 mm 0.00 in0.0 mm 0.00 in0.0 mm
09:54 AM 63.0°F17.2°C 28.5°F-1.9°C 27% Calm Calm -- 29.27 in991.2 mb 0.00 in0.0 mm 0.00 in0.0 mm 0.00 in0.0 mm
09:53 AM 62.9°F17.2°C 28.4°F-2.0°C 27% Calm Calm -- 29.27 in991.2 mb 0.00 in0.0 mm 0.00 in0.0 mm 0.00 in0.0 mm
09:52 AM 62.8°F17.1°C 27.4°F-2.6°C 26% Calm Calm -- 29.27 in991.2 mb 0.00 in0.0 mm 0.00 in0.0 mm 0.00 in0.0 mm
09:51 AM 62.7°F17.1°C 28.2°F-2.1°C 27% Calm Calm -- 29.27 in991.2 mb 0.00 in0.0 mm 0.00 in0.0 mm 0.00 in0.0 mm
09:50 AM 62.6°F17.0°C 27.2°F-2.7°C 26% Calm Calm -- 29.27 in991.2 mb 0.00 in0.0 mm 0.00 in0.0 mm 0.00 in0.0 mm
09:49 AM 62.5°F16.9°C 27.2°F-2.7°C 26% Calm Calm -- 29.27 in991.2 mb 0.00 in0.0 mm 0.00 in0.0 mm 0.00 in0.0 mm
09:48 AM 62.4°F16.9°C 28.0°F-2.2°C 27% Calm Calm -- 29.27 in991.2 mb 0.00 in0.0 mm 0.00 in0.0 mm 0.00 in0.0 mm
09:47 AM 62.3°F16.8°C 27.9°F-2.3°C 27% Calm Calm -- 29.27 in991.2 mb 0.00 in0.0 mm 0.00 in0.0 mm 0.00 in0.0 mm
09:46 AM 62.2°F16.8°C 27.8°F-2.3°C 27% Calm Calm -- 29.27 in991.2 mb 0.00 in0.0 mm 0.00 in0.0 mm 0.00 in0.0 mm
09:45 AM 62.0°F16.7°C 27.6°F-2.4°C 27% Calm Calm 1.0 mph1.6 kmh 29.27 in991.2 mb 0.00 in0.0 mm 0.00 in0.0 mm 0.00 in0.0 mm
09:44 AM 61.8°F16.6°C 27.5°F-2.5°C 27% Calm Calm 1.0 mph1.6 kmh 29.27 in991.2 mb 0.00 in0.0 mm 0.00 in0.0 mm 0.00 in0.0 mm
09:43 AM 61.7°F16.5°C 28.3°F-2.1°C 28% Calm Calm 1.0 mph1.6 kmh 29.27 in991.2 mb 0.00 in0.0 mm 0.00 in0.0 mm 0.00 in0.0 mm
09:42 AM 61.5°F16.4°C 28.1°F-2.2°C 28% Calm Calm 2.0 mph3.2 kmh 29.27 in991.2 mb 0.00 in0.0 mm 0.00 in0.0 mm 0.00 in0.0 mm
09:41 AM 61.3°F16.3°C 29.6°F-1.3°C 30% Calm Calm 2.0 mph3.2 kmh 29.27 in991.2 mb 0.00 in0.0 mm 0.00 in0.0 mm 0.00 in0.0 mm
09:40 AM 61.1°F16.2°C 28.6°F-1.9°C 29% Calm Calm 2.0 mph3.2 kmh 29.27 in991.2 mb 0.00 in0.0 mm 0.00 in0.0 mm 0.00 in0.0 mm
09:39 AM 61.0°F16.1°C 28.5°F-1.9°C 29% Calm Calm 2.0 mph3.2 kmh 29.27 in991.2 mb 0.00 in0.0 mm 0.00 in0.0 mm 0.00 in0.0 mm
09:38 AM 60.8°F16.0°C 28.3°F-2.1°C 29% Calm Calm 2.0 mph3.2 kmh 29.27 in991.2 mb 0.00 in0.0 mm 0.00 in0.0 mm 0.00 in0.0 mm
09:37 AM 60.6°F15.9°C 28.2°F-2.1°C 29% Calm Calm 2.0 mph3.2 kmh 29.27 in991.2 mb 0.00 in0.0 mm 0.00 in0.0 mm 0.00 in0.0 mm
09:36 AM 60.5°F15.8°C 28.1°F-2.2°C 29% 1.0 mph NNW1.6 kmh NNW 2.0 mph3.2 kmh 29.27 in991.2 mb 0.00 in0.0 mm 0.00 in0.0 mm 0.00 in0.0 mm
09:35 AM 60.3°F15.7°C 28.7°F-1.8°C 30% Calm Calm 2.0 mph3.2 kmh 29.27 in991.2 mb 0.00 in0.0 mm 0.00 in0.0 mm 0.00 in0.0 mm
09:34 AM 60.2°F15.7°C 27.8°F-2.3°C 29% 1.0 mph N1.6 kmh N 2.0 mph3.2 kmh 29.27 in991.2 mb 0.00 in0.0 mm 0.00 in0.0 mm 0.00 in0.0 mm
09:33 AM 60.0°F15.6°C 28.5°F-1.9°C 30% Calm Calm 2.0 mph3.2 kmh 29.27 in991.2 mb 0.00 in0.0 mm 0.00 in0.0 mm 0.00 in0.0 mm
09:32 AM 59.9°F15.5°C 28.4°F-2.0°C 30% Calm Calm 2.0 mph3.2 kmh 29.27 in991.2 mb 0.00 in0.0 mm 0.00 in0.0 mm 0.00 in0.0 mm
09:31 AM 59.7°F15.4°C 28.2°F-2.1°C 30% Calm Calm 2.0 mph3.2 kmh 29.27 in991.2 mb 0.00 in0.0 mm 0.00 in0.0 mm 0.00 in0.0 mm
09:30 AM 59.6°F15.3°C 28.1°F-2.2°C 30% Calm Calm 2.0 mph3.2 kmh 29.27 in991.2 mb 0.00 in0.0 mm 0.00 in0.0 mm 0.00 in0.0 mm
09:29 AM 59.4°F15.2°C 28.8°F-1.8°C 31% Calm Calm 2.0 mph3.2 kmh 29.28 in991.5 mb 0.00 in0.0 mm 0.00 in0.0 mm 0.00 in0.0 mm
09:28 AM 59.3°F15.2°C 28.7°F-1.8°C 31% Calm Calm 3.0 mph4.8 kmh 29.28 in991.5 mb 0.00 in0.0 mm 0.00 in0.0 mm 0.00 in0.0 mm
09:27 AM 59.1°F15.1°C 28.5°F-1.9°C 31% Calm Calm 3.0 mph4.8 kmh 29.28 in991.5 mb 0.00 in0.0 mm 0.00 in0.0 mm 0.00 in0.0 mm
09:26 AM 59.0°F15.0°C 28.4°F-2.0°C 31% 1.0 mph NW1.6 kmh NW 3.0 mph4.8 kmh 29.28 in991.5 mb 0.00 in0.0 mm 0.00 in0.0 mm 0.00 in0.0 mm
09:25 AM 58.8°F14.9°C 28.2°F-2.1°C 31% 1.0 mph NW1.6 kmh NW 3.0 mph4.8 kmh 29.28 in991.5 mb 0.00 in0.0 mm 0.00 in0.0 mm 0.00 in0.0 mm
09:24 AM 58.6°F14.8°C 28.1°F-2.2°C 31% Calm Calm 3.0 mph4.8 kmh 29.28 in991.5 mb 0.00 in0.0 mm 0.00 in0.0 mm 0.00 in0.0 mm
09:23 AM 58.4°F14.7°C 28.7°F-1.8°C 32% 2.0 mph NW3.2 kmh NW 3.0 mph4.8 kmh 29.28 in991.5 mb 0.00 in0.0 mm 0.00 in0.0 mm 0.00 in0.0 mm
09:22 AM 58.3°F14.6°C 28.6°F-1.9°C 32% Calm Calm 3.0 mph4.8 kmh 29.28 in991.5 mb 0.00 in0.0 mm 0.00 in0.0 mm 0.00 in0.0 mm
09:21 AM 58.1°F14.5°C 28.4°F-2.0°C 32% Calm Calm 3.0 mph4.8 kmh 29.28 in991.5 mb 0.00 in0.0 mm 0.00 in0.0 mm 0.00 in0.0 mm
09:20 AM 57.9°F14.4°C 28.2°F-2.1°C 32% Calm Calm 3.0 mph4.8 kmh 29.28 in991.5 mb 0.00 in0.0 mm 0.00 in0.0 mm 0.00 in0.0 mm
09:19 AM 57.8°F14.3°C 28.1°F-2.2°C 32% 1.0 mph NW1.6 kmh NW 3.0 mph4.8 kmh 29.28 in991.5 mb 0.00 in0.0 mm 0.00 in0.0 mm 0.00 in0.0 mm
09:18 AM 57.6°F14.2°C 28.7°F-1.8°C 33% Calm Calm 2.0 mph3.2 kmh 29.28 in991.5 mb 0.00 in0.0 mm 0.00 in0.0 mm 0.00 in0.0 mm
09:17 AM 57.4°F14.1°C 28.5°F-1.9°C 33% Calm Calm 2.0 mph3.2 kmh 29.28 in991.5 mb 0.00 in0.0 mm 0.00 in0.0 mm 0.00 in0.0 mm
09:16 AM 57.2°F14.0°C 29.1°F-1.6°C 34% Calm Calm 4.0 mph6.4 kmh 29.28 in991.5 mb 0.00 in0.0 mm 0.00 in0.0 mm 0.00 in0.0 mm
09:15 AM 57.0°F13.9°C 28.2°F-2.1°C 33% Calm Calm 5.0 mph8.0 kmh 29.28 in991.5 mb 0.00 in0.0 mm 0.00 in0.0 mm 0.00 in0.0 mm
09:14 AM 56.8°F13.8°C 28.0°F-2.2°C 33% Calm Calm 5.0 mph8.0 kmh 29.27 in991.2 mb 0.00 in0.0 mm 0.00 in0.0 mm 0.00 in0.0 mm
09:13 AM 56.7°F13.7°C 27.9°F-2.3°C 33% 1.0 mph NNW1.6 kmh NNW 5.0 mph8.0 kmh 29.27 in991.2 mb 0.00 in0.0 mm 0.00 in0.0 mm 0.00 in0.0 mm
09:12 AM 56.5°F13.6°C 27.8°F-2.3°C 33% 1.0 mph N1.6 kmh N 5.0 mph8.0 kmh 29.27 in991.2 mb 0.00 in0.0 mm 0.00 in0.0 mm 0.00 in0.0 mm
09:11 AM 56.4°F13.6°C 27.7°F-2.4°C 33% Calm Calm 5.0 mph8.0 kmh 29.27 in991.2 mb 0.00 in0.0 mm 0.00 in0.0 mm 0.00 in0.0 mm
09:10 AM 56.2°F13.4°C 28.2°F-2.1°C 34% 1.0 mph NNW1.6 kmh NNW 6.0 mph9.7 kmh 29.27 in991.2 mb 0.00 in0.0 mm 0.00 in0.0 mm 0.00 in0.0 mm
09:09 AM 56.1°F13.4°C 28.1°F-2.2°C 34% Calm Calm 6.0 mph9.7 kmh 29.27 in991.2 mb 0.00 in0.0 mm 0.00 in0.0 mm 0.00 in0.0 mm
09:08 AM 55.9°F13.3°C 27.2°F-2.7°C 33% 2.0 mph N3.2 kmh N 6.0 mph9.7 kmh 29.27 in991.2 mb 0.00 in0.0 mm 0.00 in0.0 mm 0.00 in0.0 mm
09:07 AM 55.8°F13.2°C 27.1°F-2.7°C 33% 3.0 mph NNE4.8 kmh NNE 6.0 mph9.7 kmh 29.27 in991.2 mb 0.00 in0.0 mm 0.00 in0.0 mm 0.00 in0.0 mm
09:06 AM 55.7°F13.2°C 27.0°F-2.8°C 33% 1.0 mph NNW1.6 kmh NNW 6.0 mph9.7 kmh 29.27 in991.2 mb 0.00 in0.0 mm 0.00 in0.0 mm 0.00 in0.0 mm
09:05 AM 55.5°F13.1°C 27.6°F-2.4°C 34% 2.0 mph NE3.2 kmh NE 6.0 mph9.7 kmh 29.27 in991.2 mb 0.00 in0.0 mm 0.00 in0.0 mm 0.00 in0.0 mm
09:04 AM 55.3°F12.9°C 26.7°F-2.9°C 33% 3.0 mph N4.8 kmh N 6.0 mph9.7 kmh 29.27 in991.2 mb 0.00 in0.0 mm 0.00 in0.0 mm 0.00 in0.0 mm
09:03 AM 55.1°F12.8°C 26.5°F-3.1°C 33% 2.0 mph N3.2 kmh N 6.0 mph9.7 kmh 29.27 in991.2 mb 0.00 in0.0 mm 0.00 in0.0 mm 0.00 in0.0 mm
09:02 AM 55.0°F12.8°C 26.4°F-3.1°C 33% 3.0 mph NNW4.8 kmh NNW 6.0 mph9.7 kmh 29.27 in991.2 mb 0.00 in0.0 mm 0.00 in0.0 mm 0.00 in0.0 mm
09:01 AM 54.8°F12.7°C 26.3°F-3.2°C 33% 5.0 mph NNW8.0 kmh NNW 6.0 mph9.7 kmh 29.27 in991.2 mb 0.00 in0.0 mm 0.00 in0.0 mm 0.00 in0.0 mm
09:00 AM 54.6°F12.6°C 26.1°F-3.3°C 33% 3.0 mph N4.8 kmh N 6.0 mph9.7 kmh 29.27 in991.2 mb 0.00 in0.0 mm 0.00 in0.0 mm 0.00 in0.0 mm
08:59 AM 54.3°F12.4°C 25.8°F-3.4°C 33% 5.0 mph NNW8.0 kmh NNW 6.0 mph9.7 kmh 29.27 in991.2 mb 0.00 in0.0 mm 0.00 in0.0 mm 0.00 in0.0 mm
08:58 AM 54.0°F12.2°C 26.3°F-3.2°C 34% 4.0 mph NW6.4 kmh NW 5.0 mph8.0 kmh 29.27 in991.2 mb 0.00 in0.0 mm 0.00 in0.0 mm 0.00 in0.0 mm
08:57 AM 53.8°F12.1°C 26.8°F-2.9°C 35% 5.0 mph NNW8.0 kmh NNW 5.0 mph8.0 kmh 29.27 in991.2 mb 0.00 in0.0 mm 0.00 in0.0 mm 0.00 in0.0 mm
08:56 AM 53.5°F11.9°C 26.5°F-3.1°C 35% 2.0 mph NNW3.2 kmh NNW 4.0 mph6.4 kmh 29.27 in991.2 mb 0.00 in0.0 mm 0.00 in0.0 mm 0.00 in0.0 mm
08:55 AM 52.3°F11.3°C 26.2°F-3.2°C 36% 2.0 mph NNE3.2 kmh NNE 3.0 mph4.8 kmh 29.27 in991.2 mb 0.00 in0.0 mm 0.00 in0.0 mm 0.00 in0.0 mm
08:50 AM 52.1°F11.2°C 26.6°F-3.0°C 37% 3.0 mph N4.8 kmh N 3.0 mph4.8 kmh 29.27 in991.2 mb 0.00 in0.0 mm 0.00 in0.0 mm 0.00 in0.0 mm
08:49 AM 51.8°F11.0°C 26.4°F-3.1°C 37% Calm Calm 3.0 mph4.8 kmh 29.27 in991.2 mb 0.00 in0.0 mm 0.00 in0.0 mm 0.00 in0.0 mm
08:48 AM 51.4°F10.8°C 26.0°F-3.3°C 37% 3.0 mph NNE4.8 kmh NNE 3.0 mph4.8 kmh 29.27 in991.2 mb 0.00 in0.0 mm 0.00 in0.0 mm 0.00 in0.0 mm
08:47 AM 51.2°F10.7°C 26.5°F-3.1°C 38% 2.0 mph NNE3.2 kmh NNE 3.0 mph4.8 kmh 29.27 in991.2 mb 0.00 in0.0 mm 0.00 in0.0 mm 0.00 in0.0 mm
08:46 AM 51.0°F10.6°C 26.3°F-3.2°C 38% 2.0 mph N3.2 kmh N 3.0 mph4.8 kmh 29.27 in991.2 mb 0.00 in0.0 mm 0.00 in0.0 mm 0.00 in0.0 mm
08:45 AM 50.4°F10.2°C 26.4°F-3.1°C 39% Calm Calm 3.0 mph4.8 kmh 29.27 in991.2 mb 0.00 in0.0 mm 0.00 in0.0 mm 0.00 in0.0 mm
08:44 AM 50.0°F10.0°C 26.6°F-3.0°C 40% 3.0 mph N4.8 kmh N 3.0 mph4.8 kmh 29.27 in991.2 mb 0.00 in0.0 mm 0.00 in0.0 mm 0.00 in0.0 mm
08:43 AM 49.7°F9.8°C 26.4°F-3.1°C 40% 1.0 mph N1.6 kmh N 2.0 mph3.2 kmh 29.27 in991.2 mb 0.00 in0.0 mm 0.00 in0.0 mm 0.00 in0.0 mm
08:42 AM 49.3°F9.6°C 26.6°F-3.0°C 41% 1.0 mph NNW1.6 kmh NNW 2.0 mph3.2 kmh 29.27 in991.2 mb 0.00 in0.0 mm 0.00 in0.0 mm 0.00 in0.0 mm
08:41 AM 48.9°F9.4°C 26.2°F-3.2°C 41% 1.0 mph N1.6 kmh N 2.0 mph3.2 kmh 29.27 in991.2 mb 0.00 in0.0 mm 0.00 in0.0 mm 0.00 in0.0 mm
08:40 AM 48.6°F9.2°C 26.6°F-3.0°C 42% Calm Calm 2.0 mph3.2 kmh 29.27 in991.2 mb 0.00 in0.0 mm 0.00 in0.0 mm 0.00 in0.0 mm
08:39 AM 48.3°F9.1°C 26.3°F-3.2°C 42% Calm Calm 2.0 mph3.2 kmh 29.27 in991.2 mb 0.00 in0.0 mm 0.00 in0.0 mm 0.00 in0.0 mm
08:38 AM 48.0°F8.9°C 27.1°F-2.7°C 44% Calm Calm 2.0 mph3.2 kmh 29.27 in991.2 mb 0.00 in0.0 mm 0.00 in0.0 mm 0.00 in0.0 mm
08:37 AM 47.8°F8.8°C 26.4°F-3.1°C 43% 1.0 mph NNW1.6 kmh NNW 1.0 mph1.6 kmh 29.27 in991.2 mb 0.00 in0.0 mm 0.00 in0.0 mm 0.00 in0.0 mm
08:36 AM 47.7°F8.7°C 26.9°F-2.8°C 44% Calm Calm 1.0 mph1.6 kmh 29.27 in991.2 mb 0.00 in0.0 mm 0.00 in0.0 mm 0.00 in0.0 mm
08:35 AM 47.6°F8.7°C 26.8°F-2.9°C 44% Calm Calm 1.0 mph1.6 kmh 29.27 in991.2 mb 0.00 in0.0 mm 0.00 in0.0 mm 0.00 in0.0 mm
08:34 AM 47.5°F8.6°C 26.7°F-2.9°C 44% Calm Calm 1.0 mph1.6 kmh 29.27 in991.2 mb 0.00 in0.0 mm 0.00 in0.0 mm 0.00 in0.0 mm
08:33 AM 47.5°F8.6°C 26.7°F-2.9°C 44% Calm Calm 1.0 mph1.6 kmh 29.27 in991.2 mb 0.00 in0.0 mm 0.00 in0.0 mm 0.00 in0.0 mm
08:32 AM 47.4°F8.6°C 27.1°F-2.7°C 45% Calm Calm 1.0 mph1.6 kmh 29.27 in991.2 mb 0.00 in0.0 mm 0.00 in0.0 mm 0.00 in0.0 mm
08:31 AM 47.4°F8.6°C 27.7°F-2.4°C 46% Calm Calm 1.0 mph1.6 kmh 29.27 in991.2 mb 0.00 in0.0 mm 0.00 in0.0 mm 0.00 in0.0 mm
08:30 AM 47.4°F8.6°C 27.7°F-2.4°C 46% Calm Calm 1.0 mph1.6 kmh 29.27 in991.2 mb 0.00 in0.0 mm 0.00 in0.0 mm 0.00 in0.0 mm
08:29 AM 47.4°F8.6°C 27.1°F-2.7°C 45% Calm Calm 1.0 mph1.6 kmh 29.27 in991.2 mb 0.00 in0.0 mm 0.00 in0.0 mm 0.00 in0.0 mm
08:28 AM 47.4°F8.6°C 27.1°F-2.7°C 45% Calm Calm 1.0 mph1.6 kmh 29.27 in991.2 mb 0.00 in0.0 mm 0.00 in0.0 mm 0.00 in0.0 mm
08:27 AM 47.3°F8.5°C 27.0°F-2.8°C 45% Calm Calm 1.0 mph1.6 kmh 29.27 in991.2 mb 0.00 in0.0 mm 0.00 in0.0 mm 0.00 in0.0 mm
08:26 AM 47.3°F8.5°C 27.0°F-2.8°C 45% 1.0 mph N1.6 kmh N 1.0 mph1.6 kmh 29.27 in991.2 mb 0.00 in0.0 mm 0.00 in0.0 mm 0.00 in0.0 mm
08:25 AM 47.2°F8.4°C 26.4°F-3.1°C 44% Calm Calm 1.0 mph1.6 kmh 29.27 in991.2 mb 0.00 in0.0 mm 0.00 in0.0 mm 0.00 in0.0 mm
08:24 AM 47.1°F8.4°C 26.3°F-3.2°C 44% Calm Calm 1.0 mph1.6 kmh 29.27 in991.2 mb 0.00 in0.0 mm 0.00 in0.0 mm 0.00 in0.0 mm
08:23 AM 47.0°F8.3°C 26.2°F-3.2°C 44% Calm Calm 1.0 mph1.6 kmh 29.27 in991.2 mb 0.00 in0.0 mm 0.00 in0.0 mm 0.00 in0.0 mm
08:22 AM 46.9°F8.3°C 26.1°F-3.3°C 44% Calm Calm -- 29.27 in991.2 mb 0.00 in0.0 mm 0.00 in0.0 mm 0.00 in0.0 mm
08:21 AM 46.8°F8.2°C 26.1°F-3.3°C 44% Calm Calm -- 29.27 in991.2 mb 0.00 in0.0 mm 0.00 in0.0 mm 0.00 in0.0 mm
08:20 AM 46.6°F8.1°C 25.9°F-3.4°C 44% Calm Calm -- 29.28 in991.5 mb 0.00 in0.0 mm 0.00 in0.0 mm 0.00 in0.0 mm
08:19 AM 46.5°F8.1°C 26.3°F-3.2°C 45% Calm Calm 1.0 mph1.6 kmh 29.28 in991.5 mb 0.00 in0.0 mm 0.00 in0.0 mm 0.00 in0.0 mm
08:18 AM 46.4°F8.0°C 26.2°F-3.2°C 45% Calm Calm 1.0 mph1.6 kmh 29.27 in991.2 mb 0.00 in0.0 mm 0.00 in0.0 mm 0.00 in0.0 mm
08:17 AM 46.3°F7.9°C 26.1°F-3.3°C 45% Calm Calm 2.0 mph3.2 kmh 29.27 in991.2 mb 0.00 in0.0 mm 0.00 in0.0 mm 0.00 in0.0 mm
08:16 AM 46.1°F7.8°C 26.0°F-3.3°C 45% Calm Calm 2.0 mph3.2 kmh 29.27 in991.2 mb 0.00 in0.0 mm 0.00 in0.0 mm 0.00 in0.0 mm
08:15 AM 45.9°F7.7°C 25.2°F-3.8°C 44% Calm Calm 2.0 mph3.2 kmh 29.27 in991.2 mb 0.00 in0.0 mm 0.00 in0.0 mm 0.00 in0.0 mm
08:14 AM 45.7°F7.6°C 25.1°F-3.8°C 44% Calm Calm 2.0 mph3.2 kmh 29.27 in991.2 mb 0.00 in0.0 mm 0.00 in0.0 mm 0.00 in0.0 mm
08:13 AM 45.5°F7.5°C 24.9°F-3.9°C 44% Calm Calm 2.0 mph3.2 kmh 29.27 in991.2 mb 0.00 in0.0 mm 0.00 in0.0 mm 0.00 in0.0 mm
08:12 AM 45.3°F7.4°C 25.2°F-3.8°C 45% Calm Calm 2.0 mph3.2 kmh 29.27 in991.2 mb 0.00 in0.0 mm 0.00 in0.0 mm 0.00 in0.0 mm
08:11 AM 45.1°F7.3°C 25.6°F-3.6°C 46% 1.0 mph N1.6 kmh N 2.0 mph3.2 kmh 29.27 in991.2 mb 0.00 in0.0 mm 0.00 in0.0 mm 0.00 in0.0 mm
08:10 AM 44.9°F7.2°C 25.9°F-3.4°C 47% Calm Calm 2.0 mph3.2 kmh 29.27 in991.2 mb 0.00 in0.0 mm 0.00 in0.0 mm 0.00 in0.0 mm
08:09 AM 44.7°F7.1°C 25.7°F-3.5°C 47% Calm Calm 2.0 mph3.2 kmh 29.27 in991.2 mb 0.00 in0.0 mm 0.00 in0.0 mm 0.00 in0.0 mm
08:08 AM 44.4°F6.9°C 26.0°F-3.3°C 48% 2.0 mph NNW3.2 kmh NNW 2.0 mph3.2 kmh 29.27 in991.2 mb 0.00 in0.0 mm 0.00 in0.0 mm 0.00 in0.0 mm
08:07 AM 44.1°F6.7°C 26.2°F-3.2°C 49% 1.0 mph NNW1.6 kmh NNW 2.0 mph3.2 kmh 29.27 in991.2 mb 0.00 in0.0 mm 0.00 in0.0 mm 0.00 in0.0 mm
08:06 AM 44.0°F6.7°C 26.6°F-3.0°C 50% 1.0 mph NW1.6 kmh NW 1.0 mph1.6 kmh 29.27 in991.2 mb 0.00 in0.0 mm 0.00 in0.0 mm 0.00 in0.0 mm
08:05 AM 43.8°F6.6°C 26.4°F-3.1°C 50% Calm Calm -- 29.27 in991.2 mb 0.00 in0.0 mm 0.00 in0.0 mm 0.00 in0.0 mm
08:04 AM 43.7°F6.5°C 26.8°F-2.9°C 51% Calm Calm -- 29.27 in991.2 mb 0.00 in0.0 mm 0.00 in0.0 mm 0.00 in0.0 mm
08:03 AM 43.6°F6.4°C 26.7°F-2.9°C 51% Calm Calm -- 29.27 in991.2 mb 0.00 in0.0 mm 0.00 in0.0 mm 0.00 in0.0 mm
08:02 AM 43.6°F6.4°C 26.7°F-2.9°C 51% Calm Calm -- 29.27 in991.2 mb 0.00 in0.0 mm 0.00 in0.0 mm 0.00 in0.0 mm
08:01 AM 43.6°F6.4°C 26.7°F-2.9°C 51% Calm Calm -- 29.27 in991.2 mb 0.00 in0.0 mm 0.00 in0.0 mm 0.00 in0.0 mm
08:00 AM 43.6°F6.4°C 26.7°F-2.9°C 51% Calm Calm -- 29.27 in991.2 mb 0.00 in0.0 mm 0.00 in0.0 mm 0.00 in0.0 mm
07:59 AM 43.7°F6.5°C 26.8°F-2.9°C 51% Calm Calm -- 29.27 in991.2 mb 0.00 in0.0 mm 0.00 in0.0 mm 0.00 in0.0 mm
07:58 AM 43.7°F6.5°C 26.8°F-2.9°C 51% Calm Calm -- 29.27 in991.2 mb 0.00 in0.0 mm 0.00 in0.0 mm 0.00 in0.0 mm
07:57 AM 43.7°F6.5°C 26.3°F-3.2°C 50% Calm Calm -- 29.27 in991.2 mb 0.00 in0.0 mm 0.00 in0.0 mm 0.00 in0.0 mm
07:56 AM 43.7°F6.5°C 26.3°F-3.2°C 50% Calm Calm -- 29.27 in991.2 mb 0.00 in0.0 mm 0.00 in0.0 mm 0.00 in0.0 mm
07:55 AM 43.7°F6.5°C 26.3°F-3.2°C 50% Calm Calm -- 29.27 in991.2 mb 0.00 in0.0 mm 0.00 in0.0 mm 0.00 in0.0 mm
07:54 AM 43.7°F6.5°C 26.3°F-3.2°C 50% Calm Calm -- 29.27 in991.2 mb 0.00 in0.0 mm 0.00 in0.0 mm 0.00 in0.0 mm
07:53 AM 43.7°F6.5°C 26.3°F-3.2°C 50% Calm Calm -- 29.27 in991.2 mb 0.00 in0.0 mm 0.00 in0.0 mm 0.00 in0.0 mm
07:52 AM 43.7°F6.5°C 25.8°F-3.4°C 49% Calm Calm -- 29.27 in991.2 mb 0.00 in0.0 mm 0.00 in0.0 mm 0.00 in0.0 mm
07:51 AM 43.6°F6.4°C 25.7°F-3.5°C 49% Calm Calm -- 29.27 in991.2 mb 0.00 in0.0 mm 0.00 in0.0 mm 0.00 in0.0 mm
07:50 AM 43.4°F6.3°C 26.0°F-3.3°C 50% Calm Calm -- 29.27 in991.2 mb 0.00 in0.0 mm 0.00 in0.0 mm 0.00 in0.0 mm
07:49 AM 43.2°F6.2°C 25.8°F-3.4°C 50% Calm Calm -- 29.27 in991.2 mb 0.00 in0.0 mm 0.00 in0.0 mm 0.00 in0.0 mm
07:48 AM 43.1°F6.2°C 25.7°F-3.5°C 50% Calm Calm -- 29.27 in991.2 mb 0.00 in0.0 mm 0.00 in0.0 mm 0.00 in0.0 mm
07:47 AM 43.0°F6.1°C 25.6°F-3.6°C 50% Calm Calm -- 29.27 in991.2 mb 0.00 in0.0 mm 0.00 in0.0 mm 0.00 in0.0 mm
07:46 AM 42.8°F6.0°C 25.0°F-3.9°C 49% Calm Calm -- 29.27 in991.2 mb 0.00 in0.0 mm 0.00 in0.0 mm 0.00 in0.0 mm
07:45 AM 42.8°F6.0°C 25.5°F-3.6°C 50% Calm Calm -- 29.27 in991.2 mb 0.00 in0.0 mm 0.00 in0.0 mm 0.00 in0.0 mm
07:44 AM 42.6°F5.9°C 25.3°F-3.7°C 50% Calm Calm -- 29.27 in991.2 mb 0.00 in0.0 mm 0.00 in0.0 mm 0.00 in0.0 mm
07:43 AM 42.6°F5.9°C 25.8°F-3.4°C 51% Calm Calm -- 29.27 in991.2 mb 0.00 in0.0 mm 0.00 in0.0 mm 0.00 in0.0 mm
07:42 AM 42.5°F5.8°C 25.7°F-3.5°C 51% Calm Calm -- 29.27 in991.2 mb 0.00 in0.0 mm 0.00 in0.0 mm 0.00 in0.0 mm
07:41 AM 42.4°F5.8°C 25.6°F-3.6°C 51% Calm Calm -- 29.27 in991.2 mb 0.00 in0.0 mm 0.00 in0.0 mm 0.00 in0.0 mm
07:40 AM 42.4°F5.8°C 25.6°F-3.6°C 51% Calm Calm -- 29.27 in991.2 mb 0.00 in0.0 mm 0.00 in0.0 mm 0.00 in0.0 mm
07:39 AM 42.4°F5.8°C 26.0°F-3.3°C 52% Calm Calm -- 29.27 in991.2 mb 0.00 in0.0 mm 0.00 in0.0 mm 0.00 in0.0 mm
07:38 AM 42.3°F5.7°C 25.9°F-3.4°C 52% Calm Calm -- 29.27 in991.2 mb 0.00 in0.0 mm 0.00 in0.0 mm 0.00 in0.0 mm
07:37 AM 42.3°F5.7°C 25.9°F-3.4°C 52% Calm Calm -- 29.27 in991.2 mb 0.00 in0.0 mm 0.00 in0.0 mm 0.00 in0.0 mm
07:36 AM 42.2°F5.7°C 25.4°F-3.7°C 51% Calm Calm -- 29.26 in990.9 mb 0.00 in0.0 mm 0.00 in0.0 mm 0.00 in0.0 mm
07:35 AM 42.2°F5.7°C 25.4°F-3.7°C 51% Calm Calm -- 29.26 in990.9 mb 0.00 in0.0 mm 0.00 in0.0 mm 0.00 in0.0 mm
07:34 AM 42.2°F5.7°C 25.4°F-3.7°C 51% Calm Calm -- 29.26 in990.9 mb 0.00 in0.0 mm 0.00 in0.0 mm 0.00 in0.0 mm
07:33 AM 42.1°F5.6°C 25.3°F-3.7°C 51% Calm Calm -- 29.26 in990.9 mb 0.00 in0.0 mm 0.00 in0.0 mm 0.00 in0.0 mm
07:32 AM 42.0°F5.6°C 25.2°F-3.8°C 51% Calm Calm -- 29.26 in990.9 mb 0.00 in0.0 mm 0.00 in0.0 mm 0.00 in0.0 mm
07:31 AM 41.9°F5.5°C 25.1°F-3.8°C 51% Calm Calm -- 29.26 in990.9 mb 0.00 in0.0 mm 0.00 in0.0 mm 0.00 in0.0 mm
07:30 AM 41.7°F5.4°C 24.9°F-3.9°C 51% Calm Calm -- 29.26 in990.9 mb 0.00 in0.0 mm 0.00 in0.0 mm 0.00 in0.0 mm
07:29 AM 41.6°F5.3°C 24.8°F-4.0°C 51% Calm Calm -- 29.26 in990.9 mb 0.00 in0.0 mm 0.00 in0.0 mm 0.00 in0.0 mm
07:28 AM 41.5°F5.3°C 24.7°F-4.1°C 51% Calm Calm -- 29.26 in990.9 mb 0.00 in0.0 mm 0.00 in0.0 mm 0.00 in0.0 mm
07:27 AM 41.3°F5.2°C 24.6°F-4.1°C 51% Calm Calm -- 29.26 in990.9 mb 0.00 in0.0 mm 0.00 in0.0 mm 0.00 in0.0 mm
07:26 AM 41.3°F5.2°C 25.0°F-3.9°C 52% Calm Calm -- 29.26 in990.9 mb 0.00 in0.0 mm 0.00 in0.0 mm 0.00 in0.0 mm
07:25 AM 41.2°F5.1°C 24.9°F-3.9°C 52% Calm Calm -- 29.26 in990.9 mb 0.00 in0.0 mm 0.00 in0.0 mm 0.00 in0.0 mm
07:24 AM 41.2°F5.1°C 24.9°F-3.9°C 52% Calm Calm -- 29.26 in990.9 mb 0.00 in0.0 mm 0.00 in0.0 mm 0.00 in0.0 mm
07:23 AM 41.1°F5.1°C 24.8°F-4.0°C 52% Calm Calm -- 29.26 in990.9 mb 0.00 in0.0 mm 0.00 in0.0 mm 0.00 in0.0 mm
07:22 AM 41.1°F5.1°C 24.8°F-4.0°C 52% Calm Calm -- 29.26 in990.9 mb 0.00 in0.0 mm 0.00 in0.0 mm 0.00 in0.0 mm
07:21 AM 41.0°F5.0°C 25.2°F-3.8°C 53% Calm Calm -- 29.26 in990.9 mb 0.00 in0.0 mm 0.00 in0.0 mm 0.00 in0.0 mm
07:20 AM 40.9°F4.9°C 25.1°F-3.8°C 53% Calm Calm -- 29.26 in990.9 mb 0.00 in0.0 mm 0.00 in0.0 mm 0.00 in0.0 mm
07:19 AM 40.8°F4.9°C 25.0°F-3.9°C 53% Calm Calm -- 29.26 in990.9 mb 0.00 in0.0 mm 0.00 in0.0 mm 0.00 in0.0 mm
07:18 AM 40.7°F4.8°C 24.9°F-3.9°C 53% Calm Calm -- 29.26 in990.9 mb 0.00 in0.0 mm 0.00 in0.0 mm 0.00 in0.0 mm
07:17 AM 40.6°F4.8°C 24.8°F-4.0°C 53% Calm Calm -- 29.26 in990.9 mb 0.00 in0.0 mm 0.00 in0.0 mm 0.00 in0.0 mm
07:16 AM 40.5°F4.7°C 24.3°F-4.3°C 52% Calm Calm -- 29.26 in990.9 mb 0.00 in0.0 mm 0.00 in0.0 mm 0.00 in0.0 mm
07:15 AM 40.4°F4.7°C 24.2°F-4.3°C 52% Calm Calm -- 29.26 in990.9 mb 0.00 in0.0 mm 0.00 in0.0 mm 0.00 in0.0 mm
07:14 AM 40.4°F4.7°C 24.6°F-4.1°C 53% Calm Calm -- 29.26 in990.9 mb 0.00 in0.0 mm 0.00 in0.0 mm 0.00 in0.0 mm
07:13 AM 40.3°F4.6°C 24.5°F-4.2°C 53% Calm Calm -- 29.26 in990.9 mb 0.00 in0.0 mm 0.00 in0.0 mm 0.00 in0.0 mm
07:12 AM 40.3°F4.6°C 24.5°F-4.2°C 53% Calm Calm -- 29.26 in990.9 mb 0.00 in0.0 mm 0.00 in0.0 mm 0.00 in0.0 mm
07:11 AM 40.2°F4.6°C 24.5°F-4.2°C 53% Calm Calm -- 29.26 in990.9 mb 0.00 in0.0 mm 0.00 in0.0 mm 0.00 in0.0 mm
07:10 AM 40.2°F4.6°C 24.5°F-4.2°C 53% Calm Calm -- 29.26 in990.9 mb 0.00 in0.0 mm 0.00 in0.0 mm 0.00 in0.0 mm
07:09 AM 40.1°F4.5°C 24.8°F-4.0°C 54% Calm Calm -- 29.26 in990.9 mb 0.00 in0.0 mm 0.00 in0.0 mm 0.00 in0.0 mm
07:08 AM 40.0°F4.4°C 24.3°F-4.3°C 53% Calm Calm -- 29.26 in990.9 mb 0.00 in0.0 mm 0.00 in0.0 mm 0.00 in0.0 mm
07:07 AM 39.9°F4.4°C 24.2°F-4.3°C 53% Calm Calm -- 29.26 in990.9 mb 0.00 in0.0 mm 0.00 in0.0 mm 0.00 in0.0 mm
07:06 AM 39.8°F4.3°C 24.1°F-4.4°C 53% Calm Calm -- 29.26 in990.9 mb 0.00 in0.0 mm 0.00 in0.0 mm 0.00 in0.0 mm
07:05 AM 39.7°F4.3°C 23.5°F-4.7°C 52% Calm Calm -- 29.26 in990.9 mb 0.00 in0.0 mm 0.00 in0.0 mm 0.00 in0.0 mm
07:04 AM 39.6°F4.2°C 23.9°F-4.5°C 53% Calm Calm -- 29.26 in990.9 mb 0.00 in0.0 mm 0.00 in0.0 mm 0.00 in0.0 mm
07:03 AM 39.6°F4.2°C 24.3°F-4.3°C 54% Calm Calm -- 29.26 in990.9 mb 0.00 in0.0 mm 0.00 in0.0 mm 0.00 in0.0 mm
07:02 AM 39.5°F4.2°C 24.2°F-4.3°C 54% Calm Calm -- 29.26 in990.9 mb 0.00 in0.0 mm 0.00 in0.0 mm 0.00 in0.0 mm
07:01 AM 39.5°F4.2°C 24.2°F-4.3°C 54% Calm Calm -- 29.26 in990.9 mb 0.00 in0.0 mm 0.00 in0.0 mm 0.00 in0.0 mm
07:00 AM 39.5°F4.2°C 24.7°F-4.1°C 55% Calm Calm -- 29.26 in990.9 mb 0.00 in0.0 mm 0.00 in0.0 mm 0.00 in0.0 mm
06:59 AM 39.5°F4.2°C 24.7°F-4.1°C 55% Calm Calm -- 29.26 in990.9 mb 0.00 in0.0 mm 0.00 in0.0 mm 0.00 in0.0 mm
06:58 AM 39.4°F4.1°C 24.6°F-4.1°C 55% Calm Calm -- 29.26 in990.9 mb 0.00 in0.0 mm 0.00 in0.0 mm 0.00 in0.0 mm
06:57 AM 39.4°F4.1°C 24.6°F-4.1°C 55% Calm Calm -- 29.25 in990.5 mb 0.00 in0.0 mm 0.00 in0.0 mm 0.00 in0.0 mm
06:56 AM 39.3°F4.1°C 24.5°F-4.2°C 55% Calm Calm -- 29.25 in990.5 mb 0.00 in0.0 mm 0.00 in0.0 mm 0.00 in0.0 mm
06:55 AM 39.2°F4.0°C 24.0°F-4.4°C 54% Calm Calm -- 29.25 in990.5 mb 0.00 in0.0 mm 0.00 in0.0 mm 0.00 in0.0 mm
06:54 AM 39.2°F4.0°C 24.0°F-4.4°C 54% Calm Calm -- 29.25 in990.5 mb 0.00 in0.0 mm 0.00 in0.0 mm 0.00 in0.0 mm
06:53 AM 39.1°F3.9°C 23.9°F-4.5°C 54% Calm Calm -- 29.25 in990.5 mb 0.00 in0.0 mm 0.00 in0.0 mm 0.00 in0.0 mm
06:52 AM 39.1°F3.9°C 23.9°F-4.5°C 54% Calm Calm -- 29.25 in990.5 mb 0.00 in0.0 mm 0.00 in0.0 mm 0.00 in0.0 mm
06:51 AM 39.0°F3.9°C 23.8°F-4.6°C 54% Calm Calm -- 29.25 in990.5 mb 0.00 in0.0 mm 0.00 in0.0 mm 0.00 in0.0 mm
06:50 AM 39.0°F3.9°C 23.8°F-4.6°C 54% Calm Calm -- 29.25 in990.5 mb 0.00 in0.0 mm 0.00 in0.0 mm 0.00 in0.0 mm
06:49 AM 38.9°F3.8°C 23.7°F-4.6°C 54% Calm Calm -- 29.25 in990.5 mb 0.00 in0.0 mm 0.00 in0.0 mm 0.00 in0.0 mm
06:48 AM 38.9°F3.8°C 23.2°F-4.9°C 53% Calm Calm -- 29.25 in990.5 mb 0.00 in0.0 mm 0.00 in0.0 mm 0.00 in0.0 mm
06:47 AM 38.9°F3.8°C 23.2°F-4.9°C 53% Calm Calm -- 29.25 in990.5 mb 0.00 in0.0 mm 0.00 in0.0 mm 0.00 in0.0 mm
06:46 AM 38.8°F3.8°C 23.2°F-4.9°C 53% Calm Calm -- 29.25 in990.5 mb 0.00 in0.0 mm 0.00 in0.0 mm 0.00 in0.0 mm
06:45 AM 38.8°F3.8°C 23.2°F-4.9°C 53% Calm Calm -- 29.25 in990.5 mb 0.00 in0.0 mm 0.00 in0.0 mm 0.00 in0.0 mm
06:44 AM 38.8°F3.8°C 24.0°F-4.4°C 55% Calm Calm -- 29.25 in990.5 mb 0.00 in0.0 mm 0.00 in0.0 mm 0.00 in0.0 mm
06:43 AM 38.8°F3.8°C 24.5°F-4.2°C 56% Calm Calm -- 29.25 in990.5 mb 0.00 in0.0 mm 0.00 in0.0 mm 0.00 in0.0 mm
06:42 AM 38.8°F3.8°C 24.5°F-4.2°C 56% Calm Calm -- 29.25 in990.5 mb 0.00 in0.0 mm 0.00 in0.0 mm 0.00 in0.0 mm
06:41 AM 38.8°F3.8°C 24.5°F-4.2°C 56% Calm Calm -- 29.25 in990.5 mb 0.00 in0.0 mm 0.00 in0.0 mm 0.00 in0.0 mm
06:40 AM 38.9°F3.8°C 24.6°F-4.1°C 56% Calm Calm -- 29.25 in990.5 mb 0.00 in0.0 mm 0.00 in0.0 mm 0.00 in0.0 mm
06:39 AM 38.9°F3.8°C 24.6°F-4.1°C 56% Calm Calm -- 29.25 in990.5 mb 0.00 in0.0 mm 0.00 in0.0 mm 0.00 in0.0 mm
06:38 AM 38.9°F3.8°C 24.6°F-4.1°C 56% Calm Calm -- 29.25 in990.5 mb 0.00 in0.0 mm 0.00 in0.0 mm 0.00 in0.0 mm
06:37 AM 39.0°F3.9°C 24.7°F-4.1°C 56% Calm Calm -- 29.25 in990.5 mb 0.00 in0.0 mm 0.00 in0.0 mm 0.00 in0.0 mm
06:36 AM 39.0°F3.9°C 24.7°F-4.1°C 56% Calm Calm -- 29.25 in990.5 mb 0.00 in0.0 mm 0.00 in0.0 mm 0.00 in0.0 mm
06:35 AM 39.1°F3.9°C 24.7°F-4.1°C 56% Calm Calm -- 29.25 in990.5 mb 0.00 in0.0 mm 0.00 in0.0 mm 0.00 in0.0 mm
06:34 AM 39.2°F4.0°C 24.4°F-4.2°C 55% Calm Calm -- 29.25 in990.5 mb 0.00 in0.0 mm 0.00 in0.0 mm 0.00 in0.0 mm
06:33 AM 39.2°F4.0°C 24.0°F-4.4°C 54% Calm Calm -- 29.24 in990.2 mb 0.00 in0.0 mm 0.00 in0.0 mm 0.00 in0.0 mm
06:32 AM 39.3°F4.1°C 24.1°F-4.4°C 54% Calm Calm -- 29.24 in990.2 mb 0.00 in0.0 mm 0.00 in0.0 mm 0.00 in0.0 mm
06:31 AM 39.3°F4.1°C 23.6°F-4.7°C 53% Calm Calm -- 29.25 in990.5 mb 0.00 in0.0 mm 0.00 in0.0 mm 0.00 in0.0 mm
06:30 AM 39.3°F4.1°C 23.6°F-4.7°C 53% Calm Calm -- 29.25 in990.5 mb 0.00 in0.0 mm 0.00 in0.0 mm 0.00 in0.0 mm
06:29 AM 39.2°F4.0°C 23.5°F-4.7°C 53% Calm Calm -- 29.24 in990.2 mb 0.00 in0.0 mm 0.00 in0.0 mm 0.00 in0.0 mm
06:28 AM 39.2°F4.0°C 23.5°F-4.7°C 53% Calm Calm -- 29.25 in990.5 mb 0.00 in0.0 mm 0.00 in0.0 mm 0.00 in0.0 mm
06:27 AM 39.2°F4.0°C 23.5°F-4.7°C 53% Calm Calm -- 29.25 in990.5 mb 0.00 in0.0 mm 0.00 in0.0 mm 0.00 in0.0 mm
06:26 AM 39.1°F3.9°C 23.4°F-4.8°C 53% Calm Calm -- 29.25 in990.5 mb 0.00 in0.0 mm 0.00 in0.0 mm 0.00 in0.0 mm
06:25 AM 39.1°F3.9°C 23.4°F-4.8°C 53% Calm Calm -- 29.24 in990.2 mb 0.00 in0.0 mm 0.00 in0.0 mm 0.00 in0.0 mm
06:24 AM 39.1°F3.9°C 23.4°F-4.8°C 53% Calm Calm -- 29.24 in990.2 mb 0.00 in0.0 mm 0.00 in0.0 mm 0.00 in0.0 mm
06:23 AM 39.0°F3.9°C 23.3°F-4.8°C 53% Calm Calm -- 29.24 in990.2 mb 0.00 in0.0 mm 0.00 in0.0 mm 0.00 in0.0 mm
06:22 AM 38.9°F3.8°C 23.2°F-4.9°C 53% Calm Calm -- 29.24 in990.2 mb 0.00 in0.0 mm 0.00 in0.0 mm 0.00 in0.0 mm
06:21 AM 38.7°F3.7°C 23.1°F-4.9°C 53% Calm Calm -- 29.24 in990.2 mb 0.00 in0.0 mm 0.00 in0.0 mm 0.00 in0.0 mm
06:20 AM 38.7°F3.7°C 22.6°F-5.2°C 52% Calm Calm -- 29.24 in990.2 mb 0.00 in0.0 mm 0.00 in0.0 mm 0.00 in0.0 mm
06:19 AM 38.6°F3.7°C 23.0°F-5.0°C 53% Calm Calm -- 29.24 in990.2 mb 0.00 in0.0 mm 0.00 in0.0 mm 0.00 in0.0 mm
06:18 AM 38.5°F3.6°C 23.3°F-4.8°C 54% Calm Calm -- 29.24 in990.2 mb 0.00 in0.0 mm 0.00 in0.0 mm 0.00 in0.0 mm
06:17 AM 38.5°F3.6°C 23.8°F-4.6°C 55% Calm Calm -- 29.24 in990.2 mb 0.00 in0.0 mm 0.00 in0.0 mm 0.00 in0.0 mm
06:16 AM 38.4°F3.6°C 23.7°F-4.6°C 55% Calm Calm -- 29.24 in990.2 mb 0.00 in0.0 mm 0.00 in0.0 mm 0.00 in0.0 mm
06:15 AM 38.4°F3.6°C 23.7°F-4.6°C 55% Calm Calm -- 29.24 in990.2 mb 0.00 in0.0 mm 0.00 in0.0 mm 0.00 in0.0 mm
06:14 AM 38.4°F3.6°C 24.1°F-4.4°C 56% Calm Calm -- 29.24 in990.2 mb 0.00 in0.0 mm 0.00 in0.0 mm 0.00 in0.0 mm
06:13 AM 38.3°F3.5°C 24.0°F-4.4°C 56% Calm Calm -- 29.24 in990.2 mb 0.00 in0.0 mm 0.00 in0.0 mm 0.00 in0.0 mm
06:12 AM 38.3°F3.5°C 24.0°F-4.4°C 56% Calm Calm -- 29.24 in990.2 mb 0.00 in0.0 mm 0.00 in0.0 mm 0.00 in0.0 mm
06:11 AM 38.3°F3.5°C 24.0°F-4.4°C 56% Calm Calm -- 29.24 in990.2 mb 0.00 in0.0 mm 0.00 in0.0 mm 0.00 in0.0 mm
06:10 AM 38.2°F3.4°C 23.9°F-4.5°C 56% Calm Calm -- 29.24 in990.2 mb 0.00 in0.0 mm 0.00 in0.0 mm 0.00 in0.0 mm
06:09 AM 38.1°F3.4°C 23.8°F-4.6°C 56% Calm Calm -- 29.24 in990.2 mb 0.00 in0.0 mm 0.00 in0.0 mm 0.00 in0.0 mm
06:08 AM 38.1°F3.4°C 23.8°F-4.6°C 56% Calm Calm -- 29.24 in990.2 mb 0.00 in0.0 mm 0.00 in0.0 mm 0.00 in0.0 mm
06:07 AM 38.2°F3.4°C 24.3°F-4.3°C 57% Calm Calm -- 29.24 in990.2 mb 0.00 in0.0 mm 0.00 in0.0 mm 0.00 in0.0 mm
06:06 AM 38.2°F3.4°C 24.3°F-4.3°C 57% Calm Calm -- 29.24 in990.2 mb 0.00 in0.0 mm 0.00 in0.0 mm 0.00 in0.0 mm
06:05 AM 38.1°F3.4°C 24.2°F-4.3°C 57% Calm Calm -- 29.24 in990.2 mb 0.00 in0.0 mm 0.00 in0.0 mm 0.00 in0.0 mm
06:04 AM 38.1°F3.4°C 24.2°F-4.3°C 57% Calm Calm -- 29.24 in990.2 mb 0.00 in0.0 mm 0.00 in0.0 mm 0.00 in0.0 mm
06:03 AM 38.2°F3.4°C 24.3°F-4.3°C 57% Calm Calm -- 29.24 in990.2 mb 0.00 in0.0 mm 0.00 in0.0 mm 0.00 in0.0 mm
06:02 AM 38.2°F3.4°C 23.9°F-4.5°C 56% Calm Calm -- 29.24 in990.2 mb 0.00 in0.0 mm 0.00 in0.0 mm 0.00 in0.0 mm
06:01 AM 38.3°F3.5°C 24.0°F-4.4°C 56% Calm Calm -- 29.24 in990.2 mb 0.00 in0.0 mm 0.00 in0.0 mm 0.00 in0.0 mm
06:00 AM 38.3°F3.5°C 24.0°F-4.4°C 56% Calm Calm -- 29.24 in990.2 mb 0.00 in0.0 mm 0.00 in0.0 mm 0.00 in0.0 mm
05:59 AM 38.4°F3.6°C 24.1°F-4.4°C 56% Calm Calm -- 29.24 in990.2 mb 0.00 in0.0 mm 0.00 in0.0 mm 0.00 in0.0 mm
05:58 AM 38.4°F3.6°C 24.1°F-4.4°C 56% Calm Calm -- 29.24 in990.2 mb 0.00 in0.0 mm 0.00 in0.0 mm 0.00 in0.0 mm
05:57 AM 38.5°F3.6°C 24.2°F-4.3°C 56% Calm Calm -- 29.24 in990.2 mb 0.00 in0.0 mm 0.00 in0.0 mm 0.00 in0.0 mm
05:56 AM 38.5°F3.6°C 24.2°F-4.3°C 56% Calm Calm -- 29.24 in990.2 mb 0.00 in0.0 mm 0.00 in0.0 mm 0.00 in0.0 mm
05:55 AM 38.5°F3.6°C 24.2°F-4.3°C 56% Calm Calm -- 29.24 in990.2 mb 0.00 in0.0 mm 0.00 in0.0 mm 0.00 in0.0 mm
05:54 AM 38.5°F3.6°C 24.2°F-4.3°C 56% Calm Calm -- 29.24 in990.2 mb 0.00 in0.0 mm 0.00 in0.0 mm 0.00 in0.0 mm
05:53 AM 38.5°F3.6°C 23.8°F-4.6°C 55% Calm Calm -- 29.24 in990.2 mb 0.00 in0.0 mm 0.00 in0.0 mm 0.00 in0.0 mm
05:52 AM 38.4°F3.6°C 23.7°F-4.6°C 55% Calm Calm -- 29.24 in990.2 mb 0.00 in0.0 mm 0.00 in0.0 mm 0.00 in0.0 mm
05:51 AM 38.5°F3.6°C 23.8°F-4.6°C 55% Calm Calm -- 29.24 in990.2 mb 0.00 in0.0 mm 0.00 in0.0 mm 0.00 in0.0 mm
05:50 AM 38.5°F3.6°C 23.8°F-4.6°C 55% Calm Calm -- 29.24 in990.2 mb 0.00 in0.0 mm 0.00 in0.0 mm 0.00 in0.0 mm
05:49 AM 38.6°F3.7°C 23.8°F-4.6°C 55% Calm Calm -- 29.24 in990.2 mb 0.00 in0.0 mm 0.00 in0.0 mm 0.00 in0.0 mm
05:48 AM 38.7°F3.7°C 23.9°F-4.5°C 55% Calm Calm -- 29.24 in990.2 mb 0.00 in0.0 mm 0.00 in0.0 mm 0.00 in0.0 mm
05:47 AM 38.8°F3.8°C 24.0°F-4.4°C 55% Calm Calm -- 29.24 in990.2 mb 0.00 in0.0 mm 0.00 in0.0 mm 0.00 in0.0 mm
05:46 AM 38.8°F3.8°C 23.6°F-4.7°C 54% Calm Calm -- 29.24 in990.2 mb 0.00 in0.0 mm 0.00 in0.0 mm 0.00 in0.0 mm
05:45 AM 38.9°F3.8°C 23.7°F-4.6°C 54% Calm Calm -- 29.24 in990.2 mb 0.00 in0.0 mm 0.00 in0.0 mm 0.00 in0.0 mm
05:44 AM 39.0°F3.9°C 23.8°F-4.6°C 54% Calm Calm -- 29.24 in990.2 mb 0.00 in0.0 mm 0.00 in0.0 mm 0.00 in0.0 mm
05:43 AM 39.0°F3.9°C 23.8°F-4.6°C 54% Calm Calm -- 29.24 in990.2 mb 0.00 in0.0 mm 0.00 in0.0 mm 0.00 in0.0 mm
05:42 AM 39.0°F3.9°C 23.8°F-4.6°C 54% Calm Calm -- 29.24 in990.2 mb 0.00 in0.0 mm 0.00 in0.0 mm 0.00 in0.0 mm
05:41 AM 39.1°F3.9°C 24.3°F-4.3°C 55% Calm Calm -- 29.24 in990.2 mb 0.00 in0.0 mm 0.00 in0.0 mm 0.00 in0.0 mm
05:40 AM 39.0°F3.9°C 24.2°F-4.3°C 55% Calm Calm -- 29.24 in990.2 mb 0.00 in0.0 mm 0.00 in0.0 mm 0.00 in0.0 mm
05:39 AM 39.1°F3.9°C 23.9°F-4.5°C 54% Calm Calm -- 29.24 in990.2 mb 0.00 in0.0 mm 0.00 in0.0 mm 0.00 in0.0 mm
05:38 AM 39.0°F3.9°C 23.8°F-4.6°C 54% Calm Calm -- 29.24 in990.2 mb 0.00 in0.0 mm 0.00 in0.0 mm 0.00 in0.0 mm
05:37 AM 39.0°F3.9°C 23.8°F-4.6°C 54% Calm Calm -- 29.24 in990.2 mb 0.00 in0.0 mm 0.00 in0.0 mm 0.00 in0.0 mm
05:36 AM 39.0°F3.9°C 23.8°F-4.6°C 54% Calm Calm -- 29.24 in990.2 mb 0.00 in0.0 mm 0.00 in0.0 mm 0.00 in0.0 mm
05:35 AM 39.0°F3.9°C 23.8°F-4.6°C 54% Calm Calm -- 29.24 in990.2 mb 0.00 in0.0 mm 0.00 in0.0 mm 0.00 in0.0 mm
05:34 AM 38.9°F3.8°C 23.7°F-4.6°C 54% Calm Calm -- 29.24 in990.2 mb 0.00 in0.0 mm 0.00 in0.0 mm 0.00 in0.0 mm
05:33 AM 38.9°F3.8°C 23.7°F-4.6°C 54% Calm Calm -- 29.24 in990.2 mb 0.00 in0.0 mm 0.00 in0.0 mm 0.00 in0.0 mm
05:32 AM 38.9°F3.8°C 23.7°F-4.6°C 54% Calm Calm -- 29.24 in990.2 mb 0.00 in0.0 mm 0.00 in0.0 mm 0.00 in0.0 mm
05:31 AM 38.9°F3.8°C 23.7°F-4.6°C 54% Calm Calm -- 29.24 in990.2 mb 0.00 in0.0 mm 0.00 in0.0 mm 0.00 in0.0 mm
05:30 AM 39.0°F3.9°C 23.8°F-4.6°C 54% Calm Calm -- 29.24 in990.2 mb 0.00 in0.0 mm 0.00 in0.0 mm 0.00 in0.0 mm
05:29 AM 39.0°F3.9°C 23.8°F-4.6°C 54% Calm Calm -- 29.24 in990.2 mb 0.00 in0.0 mm 0.00 in0.0 mm 0.00 in0.0 mm
05:28 AM 39.0°F3.9°C 23.8°F-4.6°C 54% Calm Calm -- 29.24 in990.2 mb 0.00 in0.0 mm 0.00 in0.0 mm 0.00 in0.0 mm
05:27 AM 39.1°F3.9°C 23.9°F-4.5°C 54% Calm Calm -- 29.24 in990.2 mb 0.00 in0.0 mm 0.00 in0.0 mm 0.00 in0.0 mm
05:26 AM 39.1°F3.9°C 23.9°F-4.5°C 54% Calm Calm -- 29.24 in990.2 mb 0.00 in0.0 mm 0.00 in0.0 mm 0.00 in0.0 mm
05:25 AM 39.1°F3.9°C 23.9°F-4.5°C 54% Calm Calm -- 29.24 in990.2 mb 0.00 in0.0 mm 0.00 in0.0 mm 0.00 in0.0 mm
05:24 AM 39.1°F3.9°C 23.4°F-4.8°C 53% Calm Calm -- 29.24 in990.2 mb 0.00 in0.0 mm 0.00 in0.0 mm 0.00 in0.0 mm
05:23 AM 39.2°F4.0°C 23.5°F-4.7°C 53% Calm Calm -- 29.24 in990.2 mb 0.00 in0.0 mm 0.00 in0.0 mm 0.00 in0.0 mm
05:22 AM 39.2°F4.0°C 23.5°F-4.7°C 53% Calm Calm -- 29.24 in990.2 mb 0.00 in0.0 mm 0.00 in0.0 mm 0.00 in0.0 mm
05:21 AM 39.2°F4.0°C 23.5°F-4.7°C 53% Calm Calm -- 29.24 in990.2 mb 0.00 in0.0 mm 0.00 in0.0 mm 0.00 in0.0 mm
05:20 AM 39.2°F4.0°C 23.1°F-4.9°C 52% Calm Calm -- 29.24 in990.2 mb 0.00 in0.0 mm 0.00 in0.0 mm 0.00 in0.0 mm
05:19 AM 39.2°F4.0°C 23.5°F-4.7°C 53% Calm Calm -- 29.24 in990.2 mb 0.00 in0.0 mm 0.00 in0.0 mm 0.00 in0.0 mm
05:18 AM 39.2°F4.0°C 23.5°F-4.7°C 53% Calm Calm -- 29.24 in990.2 mb 0.00 in0.0 mm 0.00 in0.0 mm 0.00 in0.0 mm
05:17 AM 39.1°F3.9°C 23.4°F-4.8°C 53% Calm Calm -- 29.24 in990.2 mb 0.00 in0.0 mm 0.00 in0.0 mm 0.00 in0.0 mm
05:16 AM 39.0°F3.9°C 22.9°F-5.1°C 52% Calm Calm -- 29.24 in990.2 mb 0.00 in0.0 mm 0.00 in0.0 mm 0.00 in0.0 mm
05:15 AM 38.9°F3.8°C 22.8°F-5.1°C 52% Calm Calm -- 29.23 in989.8 mb 0.00 in0.0 mm 0.00 in0.0 mm 0.00 in0.0 mm
05:14 AM 38.7°F3.7°C 22.6°F-5.2°C 52% Calm Calm -- 29.23 in989.8 mb 0.00 in0.0 mm 0.00 in0.0 mm 0.00 in0.0 mm
05:13 AM 38.5°F3.6°C 22.9°F-5.1°C 53% Calm Calm -- 29.23 in989.8 mb 0.00 in0.0 mm 0.00 in0.0 mm 0.00 in0.0 mm
05:12 AM 38.4°F3.6°C 22.8°F-5.1°C 53% Calm Calm -- 29.24 in990.2 mb 0.00 in0.0 mm 0.00 in0.0 mm 0.00 in0.0 mm
05:11 AM 38.2°F3.4°C 23.0°F-5.0°C 54% Calm Calm -- 29.23 in989.8 mb 0.00 in0.0 mm 0.00 in0.0 mm 0.00 in0.0 mm
05:10 AM 38.0°F3.3°C 22.9°F-5.1°C 54% Calm Calm -- 29.23 in989.8 mb 0.00 in0.0 mm 0.00 in0.0 mm 0.00 in0.0 mm
05:09 AM 37.9°F3.3°C 23.2°F-4.9°C 55% Calm Calm -- 29.23 in989.8 mb 0.00 in0.0 mm 0.00 in0.0 mm 0.00 in0.0 mm
05:08 AM 37.9°F3.3°C 23.6°F-4.7°C 56% Calm Calm -- 29.23 in989.8 mb 0.00 in0.0 mm 0.00 in0.0 mm 0.00 in0.0 mm
05:07 AM 37.9°F3.3°C 23.6°F-4.7°C 56% Calm Calm -- 29.23 in989.8 mb 0.00 in0.0 mm 0.00 in0.0 mm 0.00 in0.0 mm
05:06 AM 37.9°F3.3°C 24.0°F-4.4°C 57% Calm Calm -- 29.23 in989.8 mb 0.00 in0.0 mm 0.00 in0.0 mm 0.00 in0.0 mm
05:05 AM 37.9°F3.3°C 23.6°F-4.7°C 56% Calm Calm -- 29.23 in989.8 mb 0.00 in0.0 mm 0.00 in0.0 mm 0.00 in0.0 mm
05:04 AM 38.0°F3.3°C 23.7°F-4.6°C 56% Calm Calm -- 29.23 in989.8 mb 0.00 in0.0 mm 0.00 in0.0 mm 0.00 in0.0 mm
05:03 AM 38.1°F3.4°C 23.8°F-4.6°C 56% Calm Calm -- 29.23 in989.8 mb 0.00 in0.0 mm 0.00 in0.0 mm 0.00 in0.0 mm
05:02 AM 38.2°F3.4°C 23.9°F-4.5°C 56% Calm Calm -- 29.23 in989.8 mb 0.00 in0.0 mm 0.00 in0.0 mm 0.00 in0.0 mm
05:01 AM 38.3°F3.5°C 24.0°F-4.4°C 56% Calm Calm -- 29.23 in989.8 mb 0.00 in0.0 mm 0.00 in0.0 mm 0.00 in0.0 mm
05:00 AM 38.4°F3.6°C 23.7°F-4.6°C 55% Calm Calm -- 29.23 in989.8 mb 0.00 in0.0 mm 0.00 in0.0 mm 0.00 in0.0 mm
04:59 AM 38.5°F3.6°C 23.8°F-4.6°C 55% Calm Calm -- 29.23 in989.8 mb 0.00 in0.0 mm 0.00 in0.0 mm 0.00 in0.0 mm
04:58 AM 38.6°F3.7°C 23.8°F-4.6°C 55% Calm Calm -- 29.24 in990.2 mb 0.00 in0.0 mm 0.00 in0.0 mm 0.00 in0.0 mm
04:57 AM 38.7°F3.7°C 23.9°F-4.5°C 55% Calm Calm -- 29.24 in990.2 mb 0.00 in0.0 mm 0.00 in0.0 mm 0.00 in0.0 mm
04:56 AM 38.7°F3.7°C 23.9°F-4.5°C 55% Calm Calm -- 29.24 in990.2 mb 0.00 in0.0 mm 0.00 in0.0 mm 0.00 in0.0 mm
04:55 AM 38.8°F3.8°C 24.0°F-4.4°C 55% Calm Calm -- 29.24 in990.2 mb 0.00 in0.0 mm 0.00 in0.0 mm 0.00 in0.0 mm
04:54 AM 38.7°F3.7°C 23.5°F-4.7°C 54% Calm Calm -- 29.24 in990.2 mb 0.00 in0.0 mm 0.00 in0.0 mm 0.00 in0.0 mm
04:53 AM 38.8°F3.8°C 23.6°F-4.7°C 54% Calm Calm -- 29.24 in990.2 mb 0.00 in0.0 mm 0.00 in0.0 mm 0.00 in0.0 mm
04:52 AM 38.8°F3.8°C 23.6°F-4.7°C 54% Calm Calm -- 29.24 in990.2 mb 0.00 in0.0 mm 0.00 in0.0 mm 0.00 in0.0 mm
04:51 AM 38.8°F3.8°C 23.6°F-4.7°C 54% Calm Calm -- 29.24 in990.2 mb 0.00 in0.0 mm 0.00 in0.0 mm 0.00 in0.0 mm
04:50 AM 38.8°F3.8°C 23.6°F-4.7°C 54% Calm Calm -- 29.24 in990.2 mb 0.00 in0.0 mm 0.00 in0.0 mm 0.00 in0.0 mm
04:49 AM 38.9°F3.8°C 23.7°F-4.6°C 54% Calm Calm -- 29.24 in990.2 mb 0.00 in0.0 mm 0.00 in0.0 mm 0.00 in0.0 mm
04:48 AM 39.1°F3.9°C 23.9°F-4.5°C 54% Calm Calm -- 29.24 in990.2 mb 0.00 in0.0 mm 0.00 in0.0 mm 0.00 in0.0 mm
04:47 AM 39.1°F3.9°C 23.9°F-4.5°C 54% Calm Calm -- 29.24 in990.2 mb 0.00 in0.0 mm 0.00 in0.0 mm 0.00 in0.0 mm
04:46 AM 39.2°F4.0°C 23.5°F-4.7°C 53% Calm Calm -- 29.24 in990.2 mb 0.00 in0.0 mm 0.00 in0.0 mm 0.00 in0.0 mm
04:45 AM 39.2°F4.0°C 23.5°F-4.7°C 53% Calm Calm -- 29.24 in990.2 mb 0.00 in0.0 mm 0.00 in0.0 mm 0.00 in0.0 mm
04:44 AM 39.3°F4.1°C 23.6°F-4.7°C 53% Calm Calm -- 29.24 in990.2 mb 0.00 in0.0 mm 0.00 in0.0 mm 0.00 in0.0 mm
04:43 AM 39.3°F4.1°C 23.6°F-4.7°C 53% Calm Calm -- 29.24 in990.2 mb 0.00 in0.0 mm 0.00 in0.0 mm 0.00 in0.0 mm
04:42 AM 39.3°F4.1°C 23.2°F-4.9°C 52% Calm Calm -- 29.24 in990.2 mb 0.00 in0.0 mm 0.00 in0.0 mm 0.00 in0.0 mm
04:41 AM 39.3°F4.1°C 23.2°F-4.9°C 52% Calm Calm -- 29.24 in990.2 mb 0.00 in0.0 mm 0.00 in0.0 mm 0.00 in0.0 mm
04:40 AM 39.3°F4.1°C 23.2°F-4.9°C 52% Calm Calm -- 29.24 in990.2 mb 0.00 in0.0 mm 0.00 in0.0 mm 0.00 in0.0 mm
04:39 AM 39.4°F4.1°C 23.3°F-4.8°C 52% Calm Calm -- 29.24 in990.2 mb 0.00 in0.0 mm 0.00 in0.0 mm 0.00 in0.0 mm
04:38 AM 39.6°F4.2°C 23.9°F-4.5°C 53% Calm Calm -- 29.24 in990.2 mb 0.00 in0.0 mm 0.00 in0.0 mm 0.00 in0.0 mm
04:37 AM 39.7°F4.3°C 24.0°F-4.4°C 53% Calm Calm -- 29.24 in990.2 mb 0.00 in0.0 mm 0.00 in0.0 mm 0.00 in0.0 mm
04:36 AM 39.8°F4.3°C 23.6°F-4.7°C 52% Calm Calm -- 29.24 in990.2 mb 0.00 in0.0 mm 0.00 in0.0 mm 0.00 in0.0 mm
04:35 AM 40.0°F4.4°C 23.8°F-4.6°C 52% Calm Calm -- 29.24 in990.2 mb 0.00 in0.0 mm 0.00 in0.0 mm 0.00 in0.0 mm
04:34 AM 40.0°F4.4°C 23.8°F-4.6°C 52% Calm Calm -- 29.24 in990.2 mb 0.00 in0.0 mm 0.00 in0.0 mm 0.00 in0.0 mm
04:33 AM 40.1°F4.5°C 23.4°F-4.8°C 51% Calm Calm -- 29.24 in990.2 mb 0.00 in0.0 mm 0.00 in0.0 mm 0.00 in0.0 mm
04:32 AM 40.1°F4.5°C 23.4°F-4.8°C 51% Calm Calm -- 29.24 in990.2 mb 0.00 in0.0 mm 0.00 in0.0 mm 0.00 in0.0 mm
04:31 AM 40.1°F4.5°C 23.4°F-4.8°C 51% Calm Calm -- 29.24 in990.2 mb 0.00 in0.0 mm 0.00 in0.0 mm 0.00 in0.0 mm
04:30 AM 40.1°F4.5°C 23.9°F-4.5°C 52% Calm Calm -- 29.24 in990.2 mb 0.00 in0.0 mm 0.00 in0.0 mm 0.00 in0.0 mm
04:29 AM 40.2°F4.6°C 24.0°F-4.4°C 52% Calm Calm -- 29.24 in990.2 mb 0.00 in0.0 mm 0.00 in0.0 mm 0.00 in0.0 mm
04:28 AM 40.1°F4.5°C 23.9°F-4.5°C 52% Calm Calm -- 29.24 in990.2 mb 0.00 in0.0 mm 0.00 in0.0 mm 0.00 in0.0 mm
04:27 AM 40.1°F4.5°C 23.9°F-4.5°C 52% Calm Calm -- 29.24 in990.2 mb 0.00 in0.0 mm 0.00 in0.0 mm 0.00 in0.0 mm
04:26 AM 40.1°F4.5°C 23.9°F-4.5°C 52% Calm Calm -- 29.24 in990.2 mb 0.00 in0.0 mm 0.00 in0.0 mm 0.00 in0.0 mm
04:25 AM 40.1°F4.5°C 23.9°F-4.5°C 52% Calm Calm -- 29.24 in990.2 mb 0.00 in0.0 mm 0.00 in0.0 mm 0.00 in0.0 mm
04:24 AM 40.2°F4.6°C 23.5°F-4.7°C 51% Calm Calm -- 29.24 in990.2 mb 0.00 in0.0 mm 0.00 in0.0 mm 0.00 in0.0 mm
04:23 AM 40.3°F4.6°C 23.6°F-4.7°C 51% Calm Calm -- 29.24 in990.2 mb 0.00 in0.0 mm 0.00 in0.0 mm 0.00 in0.0 mm
04:22 AM 40.4°F4.7°C 24.2°F-4.3°C 52% Calm Calm -- 29.24 in990.2 mb 0.00 in0.0 mm 0.00 in0.0 mm 0.00 in0.0 mm
04:21 AM 40.6°F4.8°C 24.4°F-4.2°C 52% Calm Calm -- 29.24 in990.2 mb 0.00 in0.0 mm 0.00 in0.0 mm 0.00 in0.0 mm
04:20 AM 40.6°F4.8°C 24.4°F-4.2°C 52% Calm Calm -- 29.24 in990.2 mb 0.00 in0.0 mm 0.00 in0.0 mm 0.00 in0.0 mm
04:19 AM 40.6°F4.8°C 24.4°F-4.2°C 52% Calm Calm -- 29.24 in990.2 mb 0.00 in0.0 mm 0.00 in0.0 mm 0.00 in0.0 mm
04:18 AM 40.6°F4.8°C 23.9°F-4.5°C 51% Calm Calm -- 29.24 in990.2 mb 0.00 in0.0 mm 0.00 in0.0 mm 0.00 in0.0 mm
04:17 AM 40.6°F4.8°C 24.4°F-4.2°C 52% Calm Calm -- 29.24 in990.2 mb 0.00 in0.0 mm 0.00 in0.0 mm 0.00 in0.0 mm
04:16 AM 40.6°F4.8°C 24.4°F-4.2°C 52% Calm Calm -- 29.24 in990.2 mb 0.00 in0.0 mm 0.00 in0.0 mm 0.00 in0.0 mm
04:15 AM 40.6°F4.8°C 24.4°F-4.2°C 52% Calm Calm -- 29.24 in990.2 mb 0.00 in0.0 mm 0.00 in0.0 mm 0.00 in0.0 mm
04:14 AM 40.6°F4.8°C 24.4°F-4.2°C 52% Calm Calm -- 29.24 in990.2 mb 0.00 in0.0 mm 0.00 in0.0 mm 0.00 in0.0 mm
04:13 AM 40.7°F4.8°C 24.0°F-4.4°C 51% Calm Calm -- 29.24 in990.2 mb 0.00 in0.0 mm 0.00 in0.0 mm 0.00 in0.0 mm
04:12 AM 40.7°F4.8°C 24.0°F-4.4°C 51% Calm Calm -- 29.24 in990.2 mb 0.00 in0.0 mm 0.00 in0.0 mm 0.00 in0.0 mm
04:11 AM 40.8°F4.9°C 24.1°F-4.4°C 51% Calm Calm -- 29.24 in990.2 mb 0.00 in0.0 mm 0.00 in0.0 mm 0.00 in0.0 mm
04:10 AM 40.9°F4.9°C 24.2°F-4.3°C 51% Calm Calm -- 29.24 in990.2 mb 0.00 in0.0 mm 0.00 in0.0 mm 0.00 in0.0 mm
04:09 AM 41.0°F5.0°C 23.8°F-4.6°C 50% Calm Calm -- 29.24 in990.2 mb 0.00 in0.0 mm 0.00 in0.0 mm 0.00 in0.0 mm
04:08 AM 41.1°F5.1°C 23.9°F-4.5°C 50% Calm Calm -- 29.24 in990.2 mb 0.00 in0.0 mm 0.00 in0.0 mm 0.00 in0.0 mm
04:07 AM 41.2°F5.1°C 24.0°F-4.4°C 50% Calm Calm -- 29.24 in990.2 mb 0.00 in0.0 mm 0.00 in0.0 mm 0.00 in0.0 mm
04:06 AM 41.3°F5.2°C 24.1°F-4.4°C 50% Calm Calm -- 29.24 in990.2 mb 0.00 in0.0 mm 0.00 in0.0 mm 0.00 in0.0 mm
04:05 AM 41.4°F5.2°C 24.2°F-4.3°C 50% Calm Calm -- 29.24 in990.2 mb 0.00 in0.0 mm 0.00 in0.0 mm 0.00 in0.0 mm
04:04 AM 41.5°F5.3°C 24.3°F-4.3°C 50% Calm Calm -- 29.24 in990.2 mb 0.00 in0.0 mm 0.00 in0.0 mm 0.00 in0.0 mm
04:03 AM 41.5°F5.3°C 24.3°F-4.3°C 50% Calm Calm -- 29.24 in990.2 mb 0.00 in0.0 mm 0.00 in0.0 mm 0.00 in0.0 mm
04:02 AM 41.6°F5.3°C 23.9°F-4.5°C 49% Calm Calm -- 29.24 in990.2 mb 0.00 in0.0 mm 0.00 in0.0 mm 0.00 in0.0 mm
04:01 AM 41.6°F5.3°C 23.9°F-4.5°C 49% Calm Calm -- 29.24 in990.2 mb 0.00 in0.0 mm 0.00 in0.0 mm 0.00 in0.0 mm
04:00 AM 41.6°F5.3°C 23.9°F-4.5°C 49% Calm Calm -- 29.24 in990.2 mb 0.00 in0.0 mm 0.00 in0.0 mm 0.00 in0.0 mm
03:59 AM 41.6°F5.3°C 23.9°F-4.5°C 49% Calm Calm -- 29.24 in990.2 mb 0.00 in0.0 mm 0.00 in0.0 mm 0.00 in0.0 mm
03:58 AM 41.6°F5.3°C 23.9°F-4.5°C 49% Calm Calm -- 29.24 in990.2 mb 0.00 in0.0 mm 0.00 in0.0 mm 0.00 in0.0 mm
03:57 AM 41.6°F5.3°C 23.9°F-4.5°C 49% Calm Calm -- 29.24 in990.2 mb 0.00 in0.0 mm 0.00 in0.0 mm 0.00 in0.0 mm
03:56 AM 41.6°F5.3°C 23.9°F-4.5°C 49% Calm Calm -- 29.24 in990.2 mb 0.00 in0.0 mm 0.00 in0.0 mm 0.00 in0.0 mm
03:55 AM 41.6°F5.3°C 23.9°F-4.5°C 49% Calm Calm -- 29.24 in990.2 mb 0.00 in0.0 mm 0.00 in0.0 mm 0.00 in0.0 mm
03:54 AM 41.6°F5.3°C 23.9°F-4.5°C 49% Calm Calm -- 29.24 in990.2 mb 0.00 in0.0 mm 0.00 in0.0 mm 0.00 in0.0 mm
03:53 AM 41.5°F5.3°C 23.8°F-4.6°C 49% Calm Calm -- 29.24 in990.2 mb 0.00 in0.0 mm 0.00 in0.0 mm 0.00 in0.0 mm
03:52 AM 41.4°F5.2°C 23.7°F-4.6°C 49% Calm Calm -- 29.24 in990.2 mb 0.00 in0.0 mm 0.00 in0.0 mm 0.00 in0.0 mm
03:51 AM 41.2°F5.1°C 23.5°F-4.7°C 49% Calm Calm -- 29.24 in990.2 mb 0.00 in0.0 mm 0.00 in0.0 mm 0.00 in0.0 mm
03:50 AM 41.2°F5.1°C 23.5°F-4.7°C 49% Calm Calm -- 29.24 in990.2 mb 0.00 in0.0 mm 0.00 in0.0 mm 0.00 in0.0 mm
03:49 AM 41.1°F5.1°C 23.9°F-4.5°C 50% Calm Calm -- 29.24 in990.2 mb 0.00 in0.0 mm 0.00 in0.0 mm 0.00 in0.0 mm
03:48 AM 41.1°F5.1°C 23.4°F-4.8°C 49% Calm Calm -- 29.24 in990.2 mb 0.00 in0.0 mm 0.00 in0.0 mm 0.00 in0.0 mm
03:47 AM 41.2°F5.1°C 23.5°F-4.7°C 49% Calm Calm -- 29.24 in990.2 mb 0.00 in0.0 mm 0.00 in0.0 mm 0.00 in0.0 mm
03:46 AM 41.3°F5.2°C 23.6°F-4.7°C 49% Calm Calm -- 29.24 in990.2 mb 0.00 in0.0 mm 0.00 in0.0 mm 0.00 in0.0 mm
03:45 AM 41.4°F5.2°C 23.7°F-4.6°C 49% Calm Calm -- 29.24 in990.2 mb 0.00 in0.0 mm 0.00 in0.0 mm 0.00 in0.0 mm
03:44 AM 41.5°F5.3°C 23.8°F-4.6°C 49% Calm Calm -- 29.24 in990.2 mb 0.00 in0.0 mm 0.00 in0.0 mm 0.00 in0.0 mm
03:43 AM 41.6°F5.3°C 23.4°F-4.8°C 48% Calm Calm -- 29.24 in990.2 mb 0.00 in0.0 mm 0.00 in0.0 mm 0.00 in0.0 mm
03:42 AM 41.7°F5.4°C 23.5°F-4.7°C 48% Calm Calm -- 29.24 in990.2 mb 0.00 in0.0 mm 0.00 in0.0 mm 0.00 in0.0 mm
03:41 AM 41.8°F5.4°C 23.6°F-4.7°C 48% Calm Calm -- 29.24 in990.2 mb 0.00 in0.0 mm 0.00 in0.0 mm 0.00 in0.0 mm
03:40 AM 41.9°F5.5°C 23.7°F-4.6°C 48% Calm Calm -- 29.24 in990.2 mb 0.00 in0.0 mm 0.00 in0.0 mm 0.00 in0.0 mm
03:39 AM 42.1°F5.6°C 23.8°F-4.6°C 48% Calm Calm -- 29.24 in990.2 mb 0.00 in0.0 mm 0.00 in0.0 mm 0.00 in0.0 mm
03:38 AM 42.2°F5.7°C 23.9°F-4.5°C 48% Calm Calm -- 29.24 in990.2 mb 0.00 in0.0 mm 0.00 in0.0 mm 0.00 in0.0 mm
03:37 AM 42.4°F5.8°C 23.6°F-4.7°C 47% Calm Calm -- 29.24 in990.2 mb 0.00 in0.0 mm 0.00 in0.0 mm 0.00 in0.0 mm
03:36 AM 42.5°F5.8°C 23.7°F-4.6°C 47% Calm Calm -- 29.24 in990.2 mb 0.00 in0.0 mm 0.00 in0.0 mm 0.00 in0.0 mm
03:35 AM 42.8°F6.0°C 24.0°F-4.4°C 47% Calm Calm -- 29.24 in990.2 mb 0.00 in0.0 mm 0.00 in0.0 mm 0.00 in0.0 mm
03:34 AM 42.9°F6.1°C 23.6°F-4.7°C 46% Calm Calm -- 29.24 in990.2 mb 0.00 in0.0 mm 0.00 in0.0 mm 0.00 in0.0 mm
03:33 AM 43.1°F6.2°C 23.7°F-4.6°C 46% Calm Calm -- 29.24 in990.2 mb 0.00 in0.0 mm 0.00 in0.0 mm 0.00 in0.0 mm
03:31 AM 43.5°F6.4°C 23.6°F-4.7°C 45% Calm Calm -- 29.24 in990.2 mb 0.00 in0.0 mm 0.00 in0.0 mm 0.00 in0.0 mm
03:30 AM 43.7°F6.5°C 23.8°F-4.6°C 45% Calm Calm 1.0 mph1.6 kmh 29.24 in990.2 mb 0.00 in0.0 mm 0.00 in0.0 mm 0.00 in0.0 mm
03:29 AM 44.0°F6.7°C 24.0°F-4.4°C 45% Calm Calm 1.0 mph1.6 kmh 29.24 in990.2 mb 0.00 in0.0 mm 0.00 in0.0 mm 0.00 in0.0 mm
03:28 AM 44.2°F6.8°C 23.7°F-4.6°C 44% Calm Calm 1.0 mph1.6 kmh 29.24 in990.2 mb 0.00 in0.0 mm 0.00 in0.0 mm 0.00 in0.0 mm
03:27 AM 44.4°F6.9°C 23.9°F-4.5°C 44% Calm Calm 1.0 mph1.6 kmh 29.24 in990.2 mb 0.00 in0.0 mm 0.00 in0.0 mm 0.00 in0.0 mm
03:26 AM 44.5°F6.9°C 22.9°F-5.1°C 42% Calm Calm 1.0 mph1.6 kmh 29.24 in990.2 mb 0.00 in0.0 mm 0.00 in0.0 mm 0.00 in0.0 mm
03:25 AM 44.5°F6.9°C 22.9°F-5.1°C 42% Calm Calm 1.0 mph1.6 kmh 29.24 in990.2 mb 0.00 in0.0 mm 0.00 in0.0 mm 0.00 in0.0 mm
03:24 AM 44.5°F6.9°C 22.9°F-5.1°C 42% Calm Calm 1.0 mph1.6 kmh 29.24 in990.2 mb 0.00 in0.0 mm 0.00 in0.0 mm 0.00 in0.0 mm
03:23 AM 44.4°F6.9°C 22.8°F-5.1°C 42% Calm Calm 1.0 mph1.6 kmh 29.24 in990.2 mb 0.00 in0.0 mm 0.00 in0.0 mm 0.00 in0.0 mm
03:22 AM 44.5°F6.9°C 22.9°F-5.1°C 42% Calm Calm 1.0 mph1.6 kmh 29.24 in990.2 mb 0.00 in0.0 mm 0.00 in0.0 mm 0.00 in0.0 mm
03:21 AM 44.6°F7.0°C 22.9°F-5.1°C 42% Calm Calm 1.0 mph1.6 kmh 29.24 in990.2 mb 0.00 in0.0 mm 0.00 in0.0 mm 0.00 in0.0 mm
03:20 AM 44.8°F7.1°C 23.1°F-4.9°C 42% Calm Calm 1.0 mph1.6 kmh 29.24 in990.2 mb 0.00 in0.0 mm 0.00 in0.0 mm 0.00 in0.0 mm
03:19 AM 44.9°F7.2°C 23.2°F-4.9°C 42% Calm Calm 1.0 mph1.6 kmh 29.24 in990.2 mb 0.00 in0.0 mm 0.00 in0.0 mm 0.00 in0.0 mm
03:18 AM 45.0°F7.2°C 23.3°F-4.8°C 42% Calm Calm 1.0 mph1.6 kmh 29.24 in990.2 mb 0.00 in0.0 mm 0.00 in0.0 mm 0.00 in0.0 mm
03:17 AM 45.1°F7.3°C 23.4°F-4.8°C 42% Calm Calm 1.0 mph1.6 kmh 29.24 in990.2 mb 0.00 in0.0 mm 0.00 in0.0 mm 0.00 in0.0 mm
03:16 AM 45.2°F7.3°C 22.9°F-5.1°C 41% Calm Calm 1.0 mph1.6 kmh 29.24 in990.2 mb 0.00 in0.0 mm 0.00 in0.0 mm 0.00 in0.0 mm
03:15 AM 45.2°F7.3°C 22.9°F-5.1°C 41% Calm Calm 1.0 mph1.6 kmh 29.24 in990.2 mb 0.00 in0.0 mm 0.00 in0.0 mm 0.00 in0.0 mm
03:14 AM 45.2°F7.3°C 22.9°F-5.1°C 41% Calm Calm 1.0 mph1.6 kmh 29.24 in990.2 mb 0.00 in0.0 mm 0.00 in0.0 mm 0.00 in0.0 mm
03:13 AM 45.1°F7.3°C 22.8°F-5.1°C 41% Calm Calm 1.0 mph1.6 kmh 29.24 in990.2 mb 0.00 in0.0 mm 0.00 in0.0 mm 0.00 in0.0 mm
03:12 AM 45.1°F7.3°C 22.8°F-5.1°C 41% Calm Calm 1.0 mph1.6 kmh 29.24 in990.2 mb 0.00 in0.0 mm 0.00 in0.0 mm 0.00 in0.0 mm
03:11 AM 45.0°F7.2°C 22.7°F-5.2°C 41% Calm Calm 1.0 mph1.6 kmh 29.24 in990.2 mb 0.00 in0.0 mm 0.00 in0.0 mm 0.00 in0.0 mm
03:10 AM 44.9°F7.2°C 22.6°F-5.2°C 41% Calm Calm 1.0 mph1.6 kmh 29.24 in990.2 mb 0.00 in0.0 mm 0.00 in0.0 mm 0.00 in0.0 mm
03:09 AM 44.9°F7.2°C 22.6°F-5.2°C 41% Calm Calm 1.0 mph1.6 kmh 29.24 in990.2 mb 0.00 in0.0 mm 0.00 in0.0 mm 0.00 in0.0 mm
03:08 AM 44.8°F7.1°C 22.6°F-5.2°C 41% Calm Calm 1.0 mph1.6 kmh 29.24 in990.2 mb 0.00 in0.0 mm 0.00 in0.0 mm 0.00 in0.0 mm
03:07 AM 44.8°F7.1°C 22.6°F-5.2°C 41% Calm Calm 1.0 mph1.6 kmh 29.24 in990.2 mb 0.00 in0.0 mm 0.00 in0.0 mm 0.00 in0.0 mm
03:06 AM 44.8°F7.1°C 22.6°F-5.2°C 41% Calm Calm 1.0 mph1.6 kmh 29.24 in990.2 mb 0.00 in0.0 mm 0.00 in0.0 mm 0.00 in0.0 mm
03:05 AM 44.9°F7.2°C 22.6°F-5.2°C 41% Calm Calm 1.0 mph1.6 kmh 29.24 in990.2 mb 0.00 in0.0 mm 0.00 in0.0 mm 0.00 in0.0 mm
03:04 AM 45.0°F7.2°C 22.7°F-5.2°C 41% Calm Calm 1.0 mph1.6 kmh 29.24 in990.2 mb 0.00 in0.0 mm 0.00 in0.0 mm 0.00 in0.0 mm
03:03 AM 45.1°F7.3°C 23.4°F-4.8°C 42% Calm Calm 1.0 mph1.6 kmh 29.24 in990.2 mb 0.00 in0.0 mm 0.00 in0.0 mm 0.00 in0.0 mm
03:02 AM 45.1°F7.3°C 22.8°F-5.1°C 41% Calm Calm 1.0 mph1.6 kmh 29.24 in990.2 mb 0.00 in0.0 mm 0.00 in0.0 mm 0.00 in0.0 mm
03:01 AM 45.2°F7.3°C 22.9°F-5.1°C 41% Calm Calm 1.0 mph1.6 kmh 29.25 in990.5 mb 0.00 in0.0 mm 0.00 in0.0 mm 0.00 in0.0 mm
03:00 AM 45.2°F7.3°C 22.9°F-5.1°C 41% Calm Calm 1.0 mph1.6 kmh 29.24 in990.2 mb 0.00 in0.0 mm 0.00 in0.0 mm 0.00 in0.0 mm
02:59 AM 45.2°F7.3°C 22.9°F-5.1°C 41% Calm Calm 1.0 mph1.6 kmh 29.24 in990.2 mb 0.00 in0.0 mm 0.00 in0.0 mm 0.00 in0.0 mm
02:58 AM 45.2°F7.3°C 22.9°F-5.1°C 41% Calm Calm 1.0 mph1.6 kmh 29.24 in990.2 mb 0.00 in0.0 mm 0.00 in0.0 mm 0.00 in0.0 mm
02:57 AM 45.1°F7.3°C 22.8°F-5.1°C 41% Calm Calm 1.0 mph1.6 kmh 29.24 in990.2 mb 0.00 in0.0 mm 0.00 in0.0 mm 0.00 in0.0 mm
02:56 AM 45.0°F7.2°C 22.7°F-5.2°C 41% Calm Calm 1.0 mph1.6 kmh 29.24 in990.2 mb 0.00 in0.0 mm 0.00 in0.0 mm 0.00 in0.0 mm
02:55 AM 44.9°F7.2°C 22.6°F-5.2°C 41% Calm Calm 1.0 mph1.6 kmh 29.24 in990.2 mb 0.00 in0.0 mm 0.00 in0.0 mm 0.00 in0.0 mm
02:54 AM 44.9°F7.2°C 22.6°F-5.2°C 41% Calm Calm -- 29.24 in990.2 mb 0.00 in0.0 mm 0.00 in0.0 mm 0.00 in0.0 mm
02:53 AM 44.9°F7.2°C 23.2°F-4.9°C 42% Calm Calm -- 29.25 in990.5 mb 0.00 in0.0 mm 0.00 in0.0 mm 0.00 in0.0 mm
02:52 AM 44.9°F7.2°C 23.2°F-4.9°C 42% Calm Calm 1.0 mph1.6 kmh 29.25 in990.5 mb 0.00 in0.0 mm 0.00 in0.0 mm 0.00 in0.0 mm
02:51 AM 45.1°F7.3°C 23.4°F-4.8°C 42% Calm Calm 1.0 mph1.6 kmh 29.24 in990.2 mb 0.00 in0.0 mm 0.00 in0.0 mm 0.00 in0.0 mm
02:50 AM 45.2°F7.3°C 23.5°F-4.7°C 42% Calm Calm 1.0 mph1.6 kmh 29.24 in990.2 mb 0.00 in0.0 mm 0.00 in0.0 mm 0.00 in0.0 mm
02:49 AM 45.4°F7.4°C 23.1°F-4.9°C 41% Calm Calm 1.0 mph1.6 kmh 29.24 in990.2 mb 0.00 in0.0 mm 0.00 in0.0 mm 0.00 in0.0 mm
02:48 AM 45.6°F7.6°C 23.3°F-4.8°C 41% Calm Calm 1.0 mph1.6 kmh 29.24 in990.2 mb 0.00 in0.0 mm 0.00 in0.0 mm 0.00 in0.0 mm
02:47 AM 45.7°F7.6°C 23.4°F-4.8°C 41% Calm Calm 1.0 mph1.6 kmh 29.24 in990.2 mb 0.00 in0.0 mm 0.00 in0.0 mm 0.00 in0.0 mm
02:46 AM 45.9°F7.7°C 23.5°F-4.7°C 41% Calm Calm 1.0 mph1.6 kmh 29.24 in990.2 mb 0.00 in0.0 mm 0.00 in0.0 mm 0.00 in0.0 mm
02:45 AM 45.9°F7.7°C 23.0°F-5.0°C 40% Calm Calm 1.0 mph1.6 kmh 29.24 in990.2 mb 0.00 in0.0 mm 0.00 in0.0 mm 0.00 in0.0 mm
02:44 AM 45.9°F7.7°C 23.0°F-5.0°C 40% Calm Calm 1.0 mph1.6 kmh 29.25 in990.5 mb 0.00 in0.0 mm 0.00 in0.0 mm 0.00 in0.0 mm
02:43 AM 45.9°F7.7°C 23.0°F-5.0°C 40% Calm Calm 1.0 mph1.6 kmh 29.25 in990.5 mb 0.00 in0.0 mm 0.00 in0.0 mm 0.00 in0.0 mm
02:42 AM 46.0°F7.8°C 23.0°F-5.0°C 40% Calm Calm 1.0 mph1.6 kmh 29.25 in990.5 mb 0.00 in0.0 mm 0.00 in0.0 mm 0.00 in0.0 mm
02:41 AM 46.0°F7.8°C 23.0°F-5.0°C 40% Calm Calm 1.0 mph1.6 kmh 29.24 in990.2 mb 0.00 in0.0 mm 0.00 in0.0 mm 0.00 in0.0 mm
02:40 AM 46.0°F7.8°C 23.0°F-5.0°C 40% Calm Calm 1.0 mph1.6 kmh 29.24 in990.2 mb 0.00 in0.0 mm 0.00 in0.0 mm 0.00 in0.0 mm
02:39 AM 46.0°F7.8°C 23.0°F-5.0°C 40% Calm Calm -- 29.24 in990.2 mb 0.00 in0.0 mm 0.00 in0.0 mm 0.00 in0.0 mm
02:38 AM 46.1°F7.8°C 23.1°F-4.9°C 40% Calm Calm 1.0 mph1.6 kmh 29.24 in990.2 mb 0.00 in0.0 mm 0.00 in0.0 mm 0.00 in0.0 mm
02:37 AM 46.2°F7.9°C 23.2°F-4.9°C 40% Calm Calm 1.0 mph1.6 kmh 29.24 in990.2 mb 0.00 in0.0 mm 0.00 in0.0 mm 0.00 in0.0 mm
02:36 AM 46.3°F7.9°C 23.3°F-4.8°C 40% Calm Calm 1.0 mph1.6 kmh 29.24 in990.2 mb 0.00 in0.0 mm 0.00 in0.0 mm 0.00 in0.0 mm
02:35 AM 46.5°F8.1°C 22.9°F-5.1°C 39% Calm Calm 1.0 mph1.6 kmh 29.24 in990.2 mb 0.00 in0.0 mm 0.00 in0.0 mm 0.00 in0.0 mm
02:34 AM 46.7°F8.2°C 23.1°F-4.9°C 39% Calm Calm 1.0 mph1.6 kmh 29.24 in990.2 mb 0.00 in0.0 mm 0.00 in0.0 mm 0.00 in0.0 mm
02:33 AM 46.9°F8.3°C 23.3°F-4.8°C 39% Calm Calm 1.0 mph1.6 kmh 29.24 in990.2 mb 0.00 in0.0 mm 0.00 in0.0 mm 0.00 in0.0 mm
02:32 AM 47.0°F8.3°C 22.7°F-5.2°C 38% Calm Calm 1.0 mph1.6 kmh 29.24 in990.2 mb 0.00 in0.0 mm 0.00 in0.0 mm 0.00 in0.0 mm
02:31 AM 47.1°F8.4°C 22.8°F-5.1°C 38% Calm Calm 1.0 mph1.6 kmh 29.24 in990.2 mb 0.00 in0.0 mm 0.00 in0.0 mm 0.00 in0.0 mm
02:30 AM 47.3°F8.5°C 23.0°F-5.0°C 38% Calm Calm 1.0 mph1.6 kmh 29.24 in990.2 mb 0.00 in0.0 mm 0.00 in0.0 mm 0.00 in0.0 mm
02:29 AM 47.4°F8.6°C 22.5°F-5.3°C 37% Calm Calm 1.0 mph1.6 kmh 29.24 in990.2 mb 0.00 in0.0 mm 0.00 in0.0 mm 0.00 in0.0 mm
02:28 AM 47.5°F8.6°C 22.5°F-5.3°C 37% Calm Calm 1.0 mph1.6 kmh 29.24 in990.2 mb 0.00 in0.0 mm 0.00 in0.0 mm 0.00 in0.0 mm
02:27 AM 47.6°F8.7°C 22.6°F-5.2°C 37% Calm Calm 1.0 mph1.6 kmh 29.24 in990.2 mb 0.00 in0.0 mm 0.00 in0.0 mm 0.00 in0.0 mm
02:26 AM 47.7°F8.7°C 22.7°F-5.2°C 37% Calm Calm 1.0 mph1.6 kmh 29.24 in990.2 mb 0.00 in0.0 mm 0.00 in0.0 mm 0.00 in0.0 mm
02:25 AM 47.8°F8.8°C 22.2°F-5.4°C 36% Calm Calm 1.0 mph1.6 kmh 29.24 in990.2 mb 0.00 in0.0 mm 0.00 in0.0 mm 0.00 in0.0 mm
02:24 AM 47.8°F8.8°C 22.2°F-5.4°C 36% Calm Calm 1.0 mph1.6 kmh 29.24 in990.2 mb 0.00 in0.0 mm 0.00 in0.0 mm 0.00 in0.0 mm
02:23 AM 47.9°F8.8°C 22.2°F-5.4°C 36% Calm Calm 2.0 mph3.2 kmh 29.24 in990.2 mb 0.00 in0.0 mm 0.00 in0.0 mm 0.00 in0.0 mm
02:22 AM 47.9°F8.8°C 22.2°F-5.4°C 36% Calm Calm 2.0 mph3.2 kmh 29.24 in990.2 mb 0.00 in0.0 mm 0.00 in0.0 mm 0.00 in0.0 mm
02:21 AM 47.9°F8.8°C 22.2°F-5.4°C 36% Calm Calm 2.0 mph3.2 kmh 29.24 in990.2 mb 0.00 in0.0 mm 0.00 in0.0 mm 0.00 in0.0 mm
02:20 AM 48.0°F8.9°C 22.3°F-5.4°C 36% Calm Calm 2.0 mph3.2 kmh 29.24 in990.2 mb 0.00 in0.0 mm 0.00 in0.0 mm 0.00 in0.0 mm
02:19 AM 48.0°F8.9°C 22.3°F-5.4°C 36% Calm Calm 2.0 mph3.2 kmh 29.24 in990.2 mb 0.00 in0.0 mm 0.00 in0.0 mm 0.00 in0.0 mm
02:18 AM 48.0°F8.9°C 21.7°F-5.7°C 35% Calm Calm 2.0 mph3.2 kmh 29.24 in990.2 mb 0.00 in0.0 mm 0.00 in0.0 mm 0.00 in0.0 mm
02:17 AM 47.9°F8.8°C 21.6°F-5.8°C 35% Calm Calm 2.0 mph3.2 kmh 29.24 in990.2 mb 0.00 in0.0 mm 0.00 in0.0 mm 0.00 in0.0 mm
02:16 AM 47.9°F8.8°C 21.6°F-5.8°C 35% Calm Calm 2.0 mph3.2 kmh 29.24 in990.2 mb 0.00 in0.0 mm 0.00 in0.0 mm 0.00 in0.0 mm
02:15 AM 47.9°F8.8°C 21.6°F-5.8°C 35% 1.0 mph N1.6 kmh N 2.0 mph3.2 kmh 29.24 in990.2 mb 0.00 in0.0 mm 0.00 in0.0 mm 0.00 in0.0 mm
02:14 AM 48.0°F8.9°C 21.7°F-5.7°C 35% Calm Calm 2.0 mph3.2 kmh 29.24 in990.2 mb 0.00 in0.0 mm 0.00 in0.0 mm 0.00 in0.0 mm
02:13 AM 48.0°F8.9°C 21.7°F-5.7°C 35% Calm Calm 2.0 mph3.2 kmh 29.24 in990.2 mb 0.00 in0.0 mm 0.00 in0.0 mm 0.00 in0.0 mm
02:12 AM 48.0°F8.9°C 21.7°F-5.7°C 35% Calm Calm 2.0 mph3.2 kmh 29.24 in990.2 mb 0.00 in0.0 mm 0.00 in0.0 mm 0.00 in0.0 mm
02:11 AM 47.9°F8.8°C 21.6°F-5.8°C 35% Calm Calm 2.0 mph3.2 kmh 29.24 in990.2 mb 0.00 in0.0 mm 0.00 in0.0 mm 0.00 in0.0 mm
02:10 AM 47.9°F8.8°C 21.6°F-5.8°C 35% Calm Calm 2.0 mph3.2 kmh 29.24 in990.2 mb 0.00 in0.0 mm 0.00 in0.0 mm 0.00 in0.0 mm
02:09 AM 47.9°F8.8°C 21.6°F-5.8°C 35% Calm Calm 2.0 mph3.2 kmh 29.24 in990.2 mb 0.00 in0.0 mm 0.00 in0.0 mm 0.00 in0.0 mm
02:08 AM 47.8°F8.8°C 21.5°F-5.8°C 35% Calm Calm 1.0 mph1.6 kmh 29.24 in990.2 mb 0.00 in0.0 mm 0.00 in0.0 mm 0.00 in0.0 mm
02:07 AM 47.8°F8.8°C 22.2°F-5.4°C 36% Calm Calm 1.0 mph1.6 kmh 29.24 in990.2 mb 0.00 in0.0 mm 0.00 in0.0 mm 0.00 in0.0 mm
02:06 AM 47.8°F8.8°C 22.2°F-5.4°C 36% Calm Calm 1.0 mph1.6 kmh 29.24 in990.2 mb 0.00 in0.0 mm 0.00 in0.0 mm 0.00 in0.0 mm
02:05 AM 47.7°F8.7°C 22.1°F-5.5°C 36% Calm Calm 1.0 mph1.6 kmh 29.24 in990.2 mb 0.00 in0.0 mm 0.00 in0.0 mm 0.00 in0.0 mm
02:04 AM 47.8°F8.8°C 22.2°F-5.4°C 36% Calm Calm 1.0 mph1.6 kmh 29.24 in990.2 mb 0.00 in0.0 mm 0.00 in0.0 mm 0.00 in0.0 mm
02:03 AM 47.9°F8.8°C 22.2°F-5.4°C 36% Calm Calm 1.0 mph1.6 kmh 29.24 in990.2 mb 0.00 in0.0 mm 0.00 in0.0 mm 0.00 in0.0 mm
02:02 AM 48.0°F8.9°C 22.3°F-5.4°C 36% Calm Calm 1.0 mph1.6 kmh 29.24 in990.2 mb 0.00 in0.0 mm 0.00 in0.0 mm 0.00 in0.0 mm
02:01 AM 48.1°F8.9°C 21.8°F-5.7°C 35% Calm Calm 1.0 mph1.6 kmh 29.24 in990.2 mb 0.00 in0.0 mm 0.00 in0.0 mm 0.00 in0.0 mm
02:00 AM 48.2°F9.0°C 21.8°F-5.7°C 35% Calm Calm 1.0 mph1.6 kmh 29.24 in990.2 mb 0.00 in0.0 mm 0.00 in0.0 mm 0.00 in0.0 mm
01:59 AM 48.3°F9.1°C 21.9°F-5.6°C 35% Calm Calm 1.0 mph1.6 kmh 29.24 in990.2 mb 0.00 in0.0 mm 0.00 in0.0 mm 0.00 in0.0 mm
01:58 AM 48.5°F9.2°C 22.1°F-5.5°C 35% Calm Calm 2.0 mph3.2 kmh 29.24 in990.2 mb 0.00 in0.0 mm 0.00 in0.0 mm 0.00 in0.0 mm
01:57 AM 48.5°F9.2°C 22.1°F-5.5°C 35% Calm Calm 2.0 mph3.2 kmh 29.24 in990.2 mb 0.00 in0.0 mm 0.00 in0.0 mm 0.00 in0.0 mm
01:56 AM 48.6°F9.2°C 21.5°F-5.8°C 34% Calm Calm 3.0 mph4.8 kmh 29.24 in990.2 mb 0.00 in0.0 mm 0.00 in0.0 mm 0.00 in0.0 mm
01:55 AM 48.7°F9.3°C 21.6°F-5.8°C 34% Calm Calm 3.0 mph4.8 kmh 29.24 in990.2 mb 0.00 in0.0 mm 0.00 in0.0 mm 0.00 in0.0 mm
01:54 AM 48.7°F9.3°C 21.6°F-5.8°C 34% Calm Calm 3.0 mph4.8 kmh 29.24 in990.2 mb 0.00 in0.0 mm 0.00 in0.0 mm 0.00 in0.0 mm
01:53 AM 48.8°F9.3°C 21.7°F-5.7°C 34% 1.0 mph N1.6 kmh N 3.0 mph4.8 kmh 29.24 in990.2 mb 0.00 in0.0 mm 0.00 in0.0 mm 0.00 in0.0 mm
01:52 AM 48.8°F9.3°C 21.7°F-5.7°C 34% Calm Calm 3.0 mph4.8 kmh 29.24 in990.2 mb 0.00 in0.0 mm 0.00 in0.0 mm 0.00 in0.0 mm
01:51 AM 48.8°F9.3°C 21.7°F-5.7°C 34% 1.0 mph N1.6 kmh N 3.0 mph4.8 kmh 29.24 in990.2 mb 0.00 in0.0 mm 0.00 in0.0 mm 0.00 in0.0 mm
01:50 AM 48.8°F9.3°C 21.7°F-5.7°C 34% 1.0 mph N1.6 kmh N 3.0 mph4.8 kmh 29.24 in990.2 mb 0.00 in0.0 mm 0.00 in0.0 mm 0.00 in0.0 mm
01:49 AM 48.8°F9.3°C 21.7°F-5.7°C 34% 1.0 mph N1.6 kmh N 3.0 mph4.8 kmh 29.24 in990.2 mb 0.00 in0.0 mm 0.00 in0.0 mm 0.00 in0.0 mm
01:48 AM 48.8°F9.3°C 21.7°F-5.7°C 34% 1.0 mph NW1.6 kmh NW 3.0 mph4.8 kmh 29.24 in990.2 mb 0.00 in0.0 mm 0.00 in0.0 mm 0.00 in0.0 mm
01:47 AM 48.8°F9.3°C 21.7°F-5.7°C 34% 2.0 mph NNW3.2 kmh NNW 3.0 mph4.8 kmh 29.24 in990.2 mb 0.00 in0.0 mm 0.00 in0.0 mm 0.00 in0.0 mm
01:46 AM 48.8°F9.3°C 21.7°F-5.7°C 34% 3.0 mph NNW4.8 kmh NNW 3.0 mph4.8 kmh 29.24 in990.2 mb 0.00 in0.0 mm 0.00 in0.0 mm 0.00 in0.0 mm
01:45 AM 48.8°F9.3°C 21.7°F-5.7°C 34% 1.0 mph NNW1.6 kmh NNW 3.0 mph4.8 kmh 29.24 in990.2 mb 0.00 in0.0 mm 0.00 in0.0 mm 0.00 in0.0 mm
01:44 AM 48.8°F9.3°C 21.7°F-5.7°C 34% 1.0 mph NW1.6 kmh NW 3.0 mph4.8 kmh 29.24 in990.2 mb 0.00 in0.0 mm 0.00 in0.0 mm 0.00 in0.0 mm
01:43 AM 48.8°F9.3°C 21.7°F-5.7°C 34% Calm Calm 3.0 mph4.8 kmh 29.24 in990.2 mb 0.00 in0.0 mm 0.00 in0.0 mm 0.00 in0.0 mm
01:42 AM 48.8°F9.3°C 21.7°F-5.7°C 34% Calm Calm 2.0 mph3.2 kmh 29.24 in990.2 mb 0.00 in0.0 mm 0.00 in0.0 mm 0.00 in0.0 mm
01:41 AM 48.9°F9.4°C 21.8°F-5.7°C 34% Calm Calm 3.0 mph4.8 kmh 29.24 in990.2 mb 0.00 in0.0 mm 0.00 in0.0 mm 0.00 in0.0 mm
01:40 AM 48.9°F9.4°C 21.1°F-6.1°C 33% Calm Calm 3.0 mph4.8 kmh 29.24 in990.2 mb 0.00 in0.0 mm 0.00 in0.0 mm 0.00 in0.0 mm
01:39 AM 48.9°F9.4°C 21.1°F-6.1°C 33% Calm Calm 3.0 mph4.8 kmh 29.24 in990.2 mb 0.00 in0.0 mm 0.00 in0.0 mm 0.00 in0.0 mm
01:38 AM 48.9°F9.4°C 21.1°F-6.1°C 33% Calm Calm 3.0 mph4.8 kmh 29.24 in990.2 mb 0.00 in0.0 mm 0.00 in0.0 mm 0.00 in0.0 mm
01:37 AM 49.0°F9.4°C 21.2°F-6.0°C 33% 1.0 mph NNW1.6 kmh NNW 3.0 mph4.8 kmh 29.24 in990.2 mb 0.00 in0.0 mm 0.00 in0.0 mm 0.00 in0.0 mm
01:36 AM 49.0°F9.4°C 21.2°F-6.0°C 33% 1.0 mph NW1.6 kmh NW 3.0 mph4.8 kmh 29.24 in990.2 mb 0.00 in0.0 mm 0.00 in0.0 mm 0.00 in0.0 mm
01:35 AM 49.0°F9.4°C 21.2°F-6.0°C 33% 1.0 mph NW1.6 kmh NW 4.0 mph6.4 kmh 29.24 in990.2 mb 0.00 in0.0 mm 0.00 in0.0 mm 0.00 in0.0 mm
01:34 AM 49.1°F9.5°C 21.3°F-5.9°C 33% 1.0 mph NNW1.6 kmh NNW 4.0 mph6.4 kmh 29.24 in990.2 mb 0.00 in0.0 mm 0.00 in0.0 mm 0.00 in0.0 mm
01:33 AM 49.1°F9.5°C 21.3°F-5.9°C 33% 1.0 mph NW1.6 kmh NW 4.0 mph6.4 kmh 29.24 in990.2 mb 0.00 in0.0 mm 0.00 in0.0 mm 0.00 in0.0 mm
01:32 AM 49.1°F9.5°C 21.3°F-5.9°C 33% 2.0 mph NNW3.2 kmh NNW 4.0 mph6.4 kmh 29.24 in990.2 mb 0.00 in0.0 mm 0.00 in0.0 mm 0.00 in0.0 mm
01:31 AM 49.1°F9.5°C 21.3°F-5.9°C 33% 1.0 mph NW1.6 kmh NW 4.0 mph6.4 kmh 29.24 in990.2 mb 0.00 in0.0 mm 0.00 in0.0 mm 0.00 in0.0 mm
01:30 AM 49.1°F9.5°C 21.3°F-5.9°C 33% 2.0 mph NW3.2 kmh NW 4.0 mph6.4 kmh 29.24 in990.2 mb 0.00 in0.0 mm 0.00 in0.0 mm 0.00 in0.0 mm
01:29 AM 49.0°F9.4°C 21.2°F-6.0°C 33% 2.0 mph NNW3.2 kmh NNW 5.0 mph8.0 kmh 29.24 in990.2 mb 0.00 in0.0 mm 0.00 in0.0 mm 0.00 in0.0 mm
01:28 AM 49.0°F9.4°C 21.2°F-6.0°C 33% 3.0 mph NNW4.8 kmh NNW 5.0 mph8.0 kmh 29.24 in990.2 mb 0.00 in0.0 mm 0.00 in0.0 mm 0.00 in0.0 mm
01:27 AM 49.0°F9.4°C 21.2°F-6.0°C 33% 1.0 mph NW1.6 kmh NW 5.0 mph8.0 kmh 29.24 in990.2 mb 0.00 in0.0 mm 0.00 in0.0 mm 0.00 in0.0 mm
01:26 AM 48.9°F9.4°C 21.1°F-6.1°C 33% 3.0 mph NW4.8 kmh NW 5.0 mph8.0 kmh 29.24 in990.2 mb 0.00 in0.0 mm 0.00 in0.0 mm 0.00 in0.0 mm
01:25 AM 48.9°F9.4°C 21.1°F-6.1°C 33% 3.0 mph NW4.8 kmh NW 5.0 mph8.0 kmh 29.24 in990.2 mb 0.00 in0.0 mm 0.00 in0.0 mm 0.00 in0.0 mm
01:24 AM 48.8°F9.3°C 21.0°F-6.1°C 33% 3.0 mph NNW4.8 kmh NNW 5.0 mph8.0 kmh 29.24 in990.2 mb 0.00 in0.0 mm 0.00 in0.0 mm 0.00 in0.0 mm
01:23 AM 48.8°F9.3°C 21.0°F-6.1°C 33% 3.0 mph NW4.8 kmh NW 5.0 mph8.0 kmh 29.24 in990.2 mb 0.00 in0.0 mm 0.00 in0.0 mm 0.00 in0.0 mm
01:22 AM 48.7°F9.3°C 20.9°F-6.2°C 33% 3.0 mph NNW4.8 kmh NNW 5.0 mph8.0 kmh 29.24 in990.2 mb 0.00 in0.0 mm 0.00 in0.0 mm 0.00 in0.0 mm
01:21 AM 48.7°F9.3°C 20.9°F-6.2°C 33% 3.0 mph NNW4.8 kmh NNW 5.0 mph8.0 kmh 29.24 in990.2 mb 0.00 in0.0 mm 0.00 in0.0 mm 0.00 in0.0 mm
01:20 AM 48.7°F9.3°C 20.9°F-6.2°C 33% 1.0 mph NNW1.6 kmh NNW 4.0 mph6.4 kmh 29.24 in990.2 mb 0.00 in0.0 mm 0.00 in0.0 mm 0.00 in0.0 mm
01:19 AM 48.7°F9.3°C 20.9°F-6.2°C 33% 1.0 mph NNW1.6 kmh NNW 4.0 mph6.4 kmh 29.24 in990.2 mb 0.00 in0.0 mm 0.00 in0.0 mm 0.00 in0.0 mm
01:18 AM 48.7°F9.3°C 20.9°F-6.2°C 33% 1.0 mph NNW1.6 kmh NNW 4.0 mph6.4 kmh 29.24 in990.2 mb 0.00 in0.0 mm 0.00 in0.0 mm 0.00 in0.0 mm
01:17 AM 48.7°F9.3°C 21.6°F-5.8°C 34% Calm Calm 4.0 mph6.4 kmh 29.24 in990.2 mb 0.00 in0.0 mm 0.00 in0.0 mm 0.00 in0.0 mm
01:16 AM 48.6°F9.2°C 21.5°F-5.8°C 34% 1.0 mph NNW1.6 kmh NNW 4.0 mph6.4 kmh 29.24 in990.2 mb 0.00 in0.0 mm 0.00 in0.0 mm 0.00 in0.0 mm
01:15 AM 48.5°F9.2°C 21.4°F-5.9°C 34% 2.0 mph NNW3.2 kmh NNW 4.0 mph6.4 kmh 29.24 in990.2 mb 0.00 in0.0 mm 0.00 in0.0 mm 0.00 in0.0 mm
01:14 AM 48.5°F9.2°C 21.4°F-5.9°C 34% Calm Calm 4.0 mph6.4 kmh 29.24 in990.2 mb 0.00 in0.0 mm 0.00 in0.0 mm 0.00 in0.0 mm
01:13 AM 48.5°F9.2°C 21.4°F-5.9°C 34% Calm Calm 4.0 mph6.4 kmh 29.24 in990.2 mb 0.00 in0.0 mm 0.00 in0.0 mm 0.00 in0.0 mm
01:12 AM 48.4°F9.1°C 21.3°F-5.9°C 34% 1.0 mph NNW1.6 kmh NNW 4.0 mph6.4 kmh 29.24 in990.2 mb 0.00 in0.0 mm 0.00 in0.0 mm 0.00 in0.0 mm
01:11 AM 48.4°F9.1°C 21.3°F-5.9°C 34% 2.0 mph NNW3.2 kmh NNW 4.0 mph6.4 kmh 29.24 in990.2 mb 0.00 in0.0 mm 0.00 in0.0 mm 0.00 in0.0 mm
01:10 AM 48.4°F9.1°C 21.3°F-5.9°C 34% 3.0 mph N4.8 kmh N 3.0 mph4.8 kmh 29.24 in990.2 mb 0.00 in0.0 mm 0.00 in0.0 mm 0.00 in0.0 mm
01:09 AM 48.4°F9.1°C 21.3°F-5.9°C 34% 1.0 mph N1.6 kmh N 3.0 mph4.8 kmh 29.24 in990.2 mb 0.00 in0.0 mm 0.00 in0.0 mm 0.00 in0.0 mm
01:08 AM 48.3°F9.1°C 21.3°F-5.9°C 34% 2.0 mph N3.2 kmh N 3.0 mph4.8 kmh 29.24 in990.2 mb 0.00 in0.0 mm 0.00 in0.0 mm 0.00 in0.0 mm
01:07 AM 48.4°F9.1°C 21.3°F-5.9°C 34% 2.0 mph N3.2 kmh N 3.0 mph4.8 kmh 29.23 in989.8 mb 0.00 in0.0 mm 0.00 in0.0 mm 0.00 in0.0 mm
01:06 AM 48.3°F9.1°C 21.3°F-5.9°C 34% 1.0 mph N1.6 kmh N 3.0 mph4.8 kmh 29.23 in989.8 mb 0.00 in0.0 mm 0.00 in0.0 mm 0.00 in0.0 mm
01:05 AM 48.4°F9.1°C 21.3°F-5.9°C 34% 2.0 mph N3.2 kmh N 3.0 mph4.8 kmh 29.24 in990.2 mb 0.00 in0.0 mm 0.00 in0.0 mm 0.00 in0.0 mm
01:04 AM 48.4°F9.1°C 21.3°F-5.9°C 34% 2.0 mph N3.2 kmh N 3.0 mph4.8 kmh 29.24 in990.2 mb 0.00 in0.0 mm 0.00 in0.0 mm 0.00 in0.0 mm
01:03 AM 48.4°F9.1°C 21.3°F-5.9°C 34% 3.0 mph NNW4.8 kmh NNW 3.0 mph4.8 kmh 29.24 in990.2 mb 0.00 in0.0 mm 0.00 in0.0 mm 0.00 in0.0 mm
01:02 AM 48.5°F9.2°C 21.4°F-5.9°C 34% 1.0 mph NNW1.6 kmh NNW 3.0 mph4.8 kmh 29.24 in990.2 mb 0.00 in0.0 mm 0.00 in0.0 mm 0.00 in0.0 mm
01:01 AM 48.5°F9.2°C 21.4°F-5.9°C 34% Calm Calm 3.0 mph4.8 kmh 29.24 in990.2 mb 0.00 in0.0 mm 0.00 in0.0 mm 0.00 in0.0 mm
01:00 AM 48.6°F9.2°C 21.5°F-5.8°C 34% 2.0 mph N3.2 kmh N 3.0 mph4.8 kmh 29.24 in990.2 mb 0.00 in0.0 mm 0.00 in0.0 mm 0.00 in0.0 mm
12:59 AM 48.7°F9.3°C 20.9°F-6.2°C 33% 1.0 mph N1.6 kmh N 3.0 mph4.8 kmh 29.24 in990.2 mb 0.00 in0.0 mm 0.00 in0.0 mm 0.00 in0.0 mm
12:58 AM 48.8°F9.3°C 21.0°F-6.1°C 33% Calm Calm 3.0 mph4.8 kmh 29.24 in990.2 mb 0.00 in0.0 mm 0.00 in0.0 mm 0.00 in0.0 mm
12:57 AM 48.9°F9.4°C 21.1°F-6.1°C 33% 1.0 mph N1.6 kmh N 3.0 mph4.8 kmh 29.24 in990.2 mb 0.00 in0.0 mm 0.00 in0.0 mm 0.00 in0.0 mm
12:56 AM 48.9°F9.4°C 21.1°F-6.1°C 33% 1.0 mph N1.6 kmh N 3.0 mph4.8 kmh 29.24 in990.2 mb 0.00 in0.0 mm 0.00 in0.0 mm 0.00 in0.0 mm
12:55 AM 48.9°F9.4°C 21.1°F-6.1°C 33% 1.0 mph N1.6 kmh N 3.0 mph4.8 kmh 29.24 in990.2 mb 0.00 in0.0 mm 0.00 in0.0 mm 0.00 in0.0 mm
12:54 AM 48.8°F9.3°C 21.0°F-6.1°C 33% 2.0 mph N3.2 kmh N 3.0 mph4.8 kmh 29.24 in990.2 mb 0.00 in0.0 mm 0.00 in0.0 mm 0.00 in0.0 mm
12:53 AM 48.8°F9.3°C 21.0°F-6.1°C 33% Calm Calm 4.0 mph6.4 kmh 29.24 in990.2 mb 0.00 in0.0 mm 0.00 in0.0 mm 0.00 in0.0 mm
12:52 AM 48.7°F9.3°C 20.9°F-6.2°C 33% 1.0 mph NNW1.6 kmh NNW 4.0 mph6.4 kmh 29.24 in990.2 mb 0.00 in0.0 mm 0.00 in0.0 mm 0.00 in0.0 mm
12:51 AM 48.6°F9.2°C 20.8°F-6.2°C 33% Calm Calm 4.0 mph6.4 kmh 29.24 in990.2 mb 0.00 in0.0 mm 0.00 in0.0 mm 0.00 in0.0 mm
12:50 AM 48.5°F9.2°C 20.7°F-6.3°C 33% 1.0 mph NNW1.6 kmh NNW 4.0 mph6.4 kmh 29.24 in990.2 mb 0.00 in0.0 mm 0.00 in0.0 mm 0.00 in0.0 mm
12:49 AM 48.5°F9.2°C 21.4°F-5.9°C 34% 1.0 mph N1.6 kmh N 4.0 mph6.4 kmh 29.24 in990.2 mb 0.00 in0.0 mm 0.00 in0.0 mm 0.00 in0.0 mm
12:48 AM 48.4°F9.1°C 21.3°F-5.9°C 34% 3.0 mph NNW4.8 kmh NNW 4.0 mph6.4 kmh 29.24 in990.2 mb 0.00 in0.0 mm 0.00 in0.0 mm 0.00 in0.0 mm
12:47 AM 48.3°F9.1°C 21.3°F-5.9°C 34% 1.0 mph N1.6 kmh N 4.0 mph6.4 kmh 29.24 in990.2 mb 0.00 in0.0 mm 0.00 in0.0 mm 0.00 in0.0 mm
12:46 AM 48.3°F9.1°C 21.3°F-5.9°C 34% 2.0 mph N3.2 kmh N 4.0 mph6.4 kmh 29.23 in989.8 mb 0.00 in0.0 mm 0.00 in0.0 mm 0.00 in0.0 mm
12:45 AM 48.2°F9.0°C 21.2°F-6.0°C 34% 2.0 mph N3.2 kmh N 4.0 mph6.4 kmh 29.23 in989.8 mb 0.00 in0.0 mm 0.00 in0.0 mm 0.00 in0.0 mm
12:44 AM 48.2°F9.0°C 21.2°F-6.0°C 34% 3.0 mph N4.8 kmh N 3.0 mph4.8 kmh 29.24 in990.2 mb 0.00 in0.0 mm 0.00 in0.0 mm 0.00 in0.0 mm
12:43 AM 48.2°F9.0°C 21.2°F-6.0°C 34% 2.0 mph N3.2 kmh N 3.0 mph4.8 kmh 29.24 in990.2 mb 0.00 in0.0 mm 0.00 in0.0 mm 0.00 in0.0 mm
12:42 AM 48.3°F9.1°C 21.3°F-5.9°C 34% 2.0 mph N3.2 kmh N 3.0 mph4.8 kmh 29.23 in989.8 mb 0.00 in0.0 mm 0.00 in0.0 mm 0.00 in0.0 mm
12:41 AM 48.3°F9.1°C 21.3°F-5.9°C 34% 2.0 mph N3.2 kmh N 3.0 mph4.8 kmh 29.23 in989.8 mb 0.00 in0.0 mm 0.00 in0.0 mm 0.00 in0.0 mm
12:40 AM 48.4°F9.1°C 20.6°F-6.3°C 33% 2.0 mph NNE3.2 kmh NNE 3.0 mph4.8 kmh 29.24 in990.2 mb 0.00 in0.0 mm 0.00 in0.0 mm 0.00 in0.0 mm
12:39 AM 48.4°F9.1°C 20.6°F-6.3°C 33% 2.0 mph N3.2 kmh N 3.0 mph4.8 kmh 29.24 in990.2 mb 0.00 in0.0 mm 0.00 in0.0 mm 0.00 in0.0 mm
12:38 AM 48.5°F9.2°C 20.7°F-6.3°C 33% 2.0 mph N3.2 kmh N 3.0 mph4.8 kmh 29.24 in990.2 mb 0.00 in0.0 mm 0.00 in0.0 mm 0.00 in0.0 mm
12:37 AM 48.5°F9.2°C 20.7°F-6.3°C 33% 2.0 mph N3.2 kmh N 4.0 mph6.4 kmh 29.24 in990.2 mb 0.00 in0.0 mm 0.00 in0.0 mm 0.00 in0.0 mm
12:36 AM 48.5°F9.2°C 20.7°F-6.3°C 33% 1.0 mph NNW1.6 kmh NNW 4.0 mph6.4 kmh 29.24 in990.2 mb 0.00 in0.0 mm 0.00 in0.0 mm 0.00 in0.0 mm
12:35 AM 48.4°F9.1°C 20.6°F-6.3°C 33% 1.0 mph N1.6 kmh N 4.0 mph6.4 kmh 29.24 in990.2 mb 0.00 in0.0 mm 0.00 in0.0 mm 0.00 in0.0 mm
12:34 AM 48.3°F9.1°C 20.6°F-6.3°C 33% 2.0 mph NNW3.2 kmh NNW 4.0 mph6.4 kmh 29.24 in990.2 mb 0.00 in0.0 mm 0.00 in0.0 mm 0.00 in0.0 mm
12:33 AM 48.3°F9.1°C 21.3°F-5.9°C 34% 1.0 mph N1.6 kmh N 4.0 mph6.4 kmh 29.24 in990.2 mb 0.00 in0.0 mm 0.00 in0.0 mm 0.00 in0.0 mm
12:32 AM 48.2°F9.0°C 21.2°F-6.0°C 34% Calm Calm 4.0 mph6.4 kmh 29.24 in990.2 mb 0.00 in0.0 mm 0.00 in0.0 mm 0.00 in0.0 mm
12:31 AM 48.1°F8.9°C 21.1°F-6.1°C 34% 2.0 mph NNW3.2 kmh NNW 4.0 mph6.4 kmh 29.24 in990.2 mb 0.00 in0.0 mm 0.00 in0.0 mm 0.00 in0.0 mm
12:30 AM 47.9°F8.8°C 20.9°F-6.2°C 34% 2.0 mph NW3.2 kmh NW 4.0 mph6.4 kmh 29.24 in990.2 mb 0.00 in0.0 mm 0.00 in0.0 mm 0.00 in0.0 mm
12:29 AM 47.7°F8.7°C 20.7°F-6.3°C 34% 4.0 mph N6.4 kmh N 4.0 mph6.4 kmh 29.24 in990.2 mb 0.00 in0.0 mm 0.00 in0.0 mm 0.00 in0.0 mm
12:28 AM 47.5°F8.6°C 21.2°F-6.0°C 35% 2.0 mph NW3.2 kmh NW 3.0 mph4.8 kmh 29.24 in990.2 mb 0.00 in0.0 mm 0.00 in0.0 mm 0.00 in0.0 mm
12:27 AM 47.3°F8.5°C 21.1°F-6.1°C 35% 1.0 mph NNW1.6 kmh NNW 2.0 mph3.2 kmh 29.24 in990.2 mb 0.00 in0.0 mm 0.00 in0.0 mm 0.00 in0.0 mm
12:26 AM 47.0°F8.3°C 21.4°F-5.9°C 36% 2.0 mph NNW3.2 kmh NNW 2.0 mph3.2 kmh 29.24 in990.2 mb 0.00 in0.0 mm 0.00 in0.0 mm 0.00 in0.0 mm
12:25 AM 46.8°F8.2°C 21.3°F-5.9°C 36% 1.0 mph NNW1.6 kmh NNW 2.0 mph3.2 kmh 29.24 in990.2 mb 0.00 in0.0 mm 0.00 in0.0 mm 0.00 in0.0 mm
12:24 AM 46.4°F8.0°C 21.6°F-5.8°C 37% 2.0 mph NNW3.2 kmh NNW 2.0 mph3.2 kmh 29.24 in990.2 mb 0.00 in0.0 mm 0.00 in0.0 mm 0.00 in0.0 mm
12:23 AM 46.2°F7.9°C 22.0°F-5.6°C 38% 1.0 mph NNW1.6 kmh NNW 2.0 mph3.2 kmh 29.24 in990.2 mb 0.00 in0.0 mm 0.00 in0.0 mm 0.00 in0.0 mm
12:22 AM 45.9°F7.7°C 21.7°F-5.7°C 38% 2.0 mph NNW3.2 kmh NNW 2.0 mph3.2 kmh 29.24 in990.2 mb 0.00 in0.0 mm 0.00 in0.0 mm 0.00 in0.0 mm
12:21 AM 45.8°F7.7°C 22.3°F-5.4°C 39% Calm Calm 1.0 mph1.6 kmh 29.24 in990.2 mb 0.00 in0.0 mm 0.00 in0.0 mm 0.00 in0.0 mm
12:20 AM 45.8°F7.7°C 22.9°F-5.1°C 40% Calm Calm 1.0 mph1.6 kmh 29.24 in990.2 mb 0.00 in0.0 mm 0.00 in0.0 mm 0.00 in0.0 mm
12:19 AM 45.8°F7.7°C 23.5°F-4.7°C 41% 1.0 mph N1.6 kmh N 1.0 mph1.6 kmh 29.24 in990.2 mb 0.00 in0.0 mm 0.00 in0.0 mm 0.00 in0.0 mm
12:18 AM 45.9°F7.7°C 23.0°F-5.0°C 40% 1.0 mph N1.6 kmh N 1.0 mph1.6 kmh 29.24 in990.2 mb 0.00 in0.0 mm 0.00 in0.0 mm 0.00 in0.0 mm
12:17 AM 46.0°F7.8°C 23.0°F-5.0°C 40% Calm Calm 1.0 mph1.6 kmh 29.24 in990.2 mb 0.00 in0.0 mm 0.00 in0.0 mm 0.00 in0.0 mm
12:16 AM 46.1°F7.8°C 23.1°F-4.9°C 40% Calm Calm 1.0 mph1.6 kmh 29.23 in989.8 mb 0.00 in0.0 mm 0.00 in0.0 mm 0.00 in0.0 mm
12:15 AM 46.3°F7.9°C 22.7°F-5.2°C 39% Calm Calm 1.0 mph1.6 kmh 29.23 in989.8 mb 0.00 in0.0 mm 0.00 in0.0 mm 0.00 in0.0 mm
12:14 AM 46.4°F8.0°C 22.8°F-5.1°C 39% Calm Calm 1.0 mph1.6 kmh 29.24 in990.2 mb 0.00 in0.0 mm 0.00 in0.0 mm 0.00 in0.0 mm
12:13 AM 46.5°F8.1°C 22.9°F-5.1°C 39% Calm Calm 1.0 mph1.6 kmh 29.24 in990.2 mb 0.00 in0.0 mm 0.00 in0.0 mm 0.00 in0.0 mm
12:12 AM 46.7°F8.2°C 23.1°F-4.9°C 39% Calm Calm 1.0 mph1.6 kmh 29.24 in990.2 mb 0.00 in0.0 mm 0.00 in0.0 mm 0.00 in0.0 mm
12:11 AM 46.8°F8.2°C 23.2°F-4.9°C 39% Calm Calm 1.0 mph1.6 kmh 29.24 in990.2 mb 0.00 in0.0 mm 0.00 in0.0 mm 0.00 in0.0 mm
12:10 AM 47.0°F8.3°C 23.3°F-4.8°C 39% Calm Calm 1.0 mph1.6 kmh 29.24 in990.2 mb 0.00 in0.0 mm 0.00 in0.0 mm 0.00 in0.0 mm
12:09 AM 47.1°F8.4°C 22.8°F-5.1°C 38% Calm Calm 1.0 mph1.6 kmh 29.24 in990.2 mb 0.00 in0.0 mm 0.00 in0.0 mm 0.00 in0.0 mm
12:08 AM 47.2°F8.4°C 22.9°F-5.1°C 38% Calm Calm 1.0 mph1.6 kmh 29.24 in990.2 mb 0.00 in0.0 mm 0.00 in0.0 mm 0.00 in0.0 mm
12:07 AM 47.3°F8.5°C 23.0°F-5.0°C 38% Calm Calm 1.0 mph1.6 kmh 29.24 in990.2 mb 0.00 in0.0 mm 0.00 in0.0 mm 0.00 in0.0 mm
12:06 AM 47.4°F8.6°C 23.1°F-4.9°C 38% Calm Calm 1.0 mph1.6 kmh 29.24 in990.2 mb 0.00 in0.0 mm 0.00 in0.0 mm 0.00 in0.0 mm
12:05 AM 47.5°F8.6°C 23.2°F-4.9°C 38% Calm Calm 1.0 mph1.6 kmh 29.24 in990.2 mb 0.00 in0.0 mm 0.00 in0.0 mm 0.00 in0.0 mm
12:04 AM 47.5°F8.6°C 22.5°F-5.3°C 37% Calm Calm 1.0 mph1.6 kmh 29.24 in990.2 mb 0.00 in0.0 mm 0.00 in0.0 mm 0.00 in0.0 mm
12:03 AM 47.6°F8.7°C 22.6°F-5.2°C 37% Calm Calm 1.0 mph1.6 kmh 29.24 in990.2 mb 0.00 in0.0 mm 0.00 in0.0 mm 0.00 in0.0 mm
12:02 AM 47.6°F8.7°C 22.6°F-5.2°C 37% Calm Calm 1.0 mph1.6 kmh 29.24 in990.2 mb 0.00 in0.0 mm 0.00 in0.0 mm 0.00 in0.0 mm
12:01 AM 47.6°F8.7°C 22.6°F-5.2°C 37% Calm Calm 1.0 mph1.6 kmh 29.24 in990.2 mb 0.00 in0.0 mm 0.00 in0.0 mm 0.00 in0.0 mm
12:00 AM 47.6°F8.7°C 22.6°F-5.2°C 37% Calm Calm 1.0 mph1.6 kmh 29.24 in990.2 mb 0.00 in0.0 mm 0.00 in0.0 mm 0.00 in0.0 mm